PWSweather.com
Personal Weather Stations
Station Observations
DL5ARK
SonnebergDE

SonnebergDE

Lat: 50.34904861, Lon: 11.18112087

Elevation: 1214

Station Type: Selfmade

http://www.sumbarg.de

High Low Average
Temperature 51.2°F10.7°C 39.3°F4.1°C 46.5°F8.1°C
Dew Point 52.3°F11.3°C 43.3°F6.3°C 49.1°F9.5°C
Winds 11.8 mph 19.0 kmh Calm Calm 1.0 mph SSW1.6 kmh SSW
Wind Gusts 11.9 mph19.2 kmh -- 1.0 mph1.6 kmh
Humidity 92% 82% 87%
Pressure 29.84 in1010.5 mb 29.76 in1007.8 mb -
Precipitation 0.38 in9.7 mm - -
Hour Temp Dew Point Humidity Winds Wind Gusts Pressure Precip Precip Rate Daily Precip Total
12:02 AM 44.0°F6.7°C 47.7°F8.7°C 89% Calm Calm -- 29.83 in1010.2 mb 0.00 in0.0 mm 0.00 in0.0 mm 0.00 in0.0 mm
12:05 AM 43.9°F6.6°C 47.5°F8.6°C 88% Calm Calm -- 29.83 in1010.2 mb 0.00 in0.0 mm 0.00 in0.0 mm 0.00 in0.0 mm
12:08 AM 43.9°F6.6°C 47.5°F8.6°C 88% Calm Calm -- 29.84 in1010.5 mb 0.00 in0.0 mm 0.00 in0.0 mm 0.00 in0.0 mm
12:11 AM 43.8°F6.6°C 47.8°F8.8°C 89% Calm Calm -- 29.84 in1010.5 mb 0.00 in0.0 mm 0.00 in0.0 mm 0.00 in0.0 mm
12:14 AM 43.8°F6.6°C 47.5°F8.6°C 88% Calm Calm -- 29.84 in1010.5 mb 0.00 in0.0 mm 0.00 in0.0 mm 0.00 in0.0 mm
12:17 AM 43.8°F6.6°C 47.6°F8.7°C 89% Calm Calm -- 29.84 in1010.5 mb 0.00 in0.0 mm 0.00 in0.0 mm 0.00 in0.0 mm
12:20 AM 43.9°F6.6°C 47.8°F8.8°C 89% Calm Calm -- 29.84 in1010.5 mb 0.00 in0.0 mm 0.00 in0.0 mm 0.00 in0.0 mm
12:23 AM 43.9°F6.6°C 47.8°F8.8°C 89% 1.2 mph SE1.9 kmh SE 1.2 mph1.9 kmh 29.84 in1010.5 mb 0.00 in0.0 mm 0.00 in0.0 mm 0.00 in0.0 mm
12:26 AM 44.3°F6.8°C 47.5°F8.6°C 89% 0.4 mph NNW0.6 kmh NNW 0.4 mph0.6 kmh 29.84 in1010.5 mb 0.00 in0.0 mm 0.00 in0.0 mm 0.00 in0.0 mm
12:29 AM 44.0°F6.7°C 47.7°F8.7°C 90% 1.2 mph SE1.9 kmh SE 1.2 mph1.9 kmh 29.83 in1010.2 mb 0.00 in0.0 mm 0.00 in0.0 mm 0.00 in0.0 mm
12:32 AM 43.8°F6.6°C 47.7°F8.7°C 90% 1.2 mph SE1.9 kmh SE 1.2 mph1.9 kmh 29.84 in1010.5 mb 0.00 in0.0 mm 0.00 in0.0 mm 0.00 in0.0 mm
12:35 AM 43.8°F6.6°C 47.7°F8.7°C 90% 2.0 mph SE3.2 kmh SE 2.0 mph3.2 kmh 29.84 in1010.5 mb 0.00 in0.0 mm 0.00 in0.0 mm 0.00 in0.0 mm
12:38 AM 44.0°F6.7°C 47.9°F8.8°C 90% 1.2 mph SE1.9 kmh SE 1.2 mph1.9 kmh 29.84 in1010.5 mb 0.00 in0.0 mm 0.00 in0.0 mm 0.00 in0.0 mm
12:41 AM 43.9°F6.6°C 47.9°F8.8°C 90% Calm Calm -- 29.84 in1010.5 mb 0.00 in0.0 mm 0.00 in0.0 mm 0.00 in0.0 mm
12:44 AM 43.8°F6.6°C 47.8°F8.8°C 90% Calm Calm -- 29.83 in1010.2 mb 0.00 in0.0 mm 0.00 in0.0 mm 0.00 in0.0 mm
12:47 AM 43.8°F6.6°C 47.8°F8.8°C 90% Calm Calm -- 29.83 in1010.2 mb 0.00 in0.0 mm 0.00 in0.0 mm 0.00 in0.0 mm
12:50 AM 44.2°F6.8°C 47.9°F8.8°C 90% 2.4 mph SSE3.9 kmh SSE 2.4 mph3.9 kmh 29.84 in1010.5 mb 0.00 in0.0 mm 0.00 in0.0 mm 0.00 in0.0 mm
12:53 AM 44.3°F6.8°C 47.8°F8.8°C 90% 1.6 mph NNW2.6 kmh NNW 1.6 mph2.6 kmh 29.84 in1010.5 mb 0.00 in0.0 mm 0.00 in0.0 mm 0.00 in0.0 mm
12:56 AM 44.5°F6.9°C 47.9°F8.8°C 90% 1.2 mph SE1.9 kmh SE 1.2 mph1.9 kmh 29.83 in1010.2 mb 0.00 in0.0 mm 0.00 in0.0 mm 0.00 in0.0 mm
12:59 AM 44.3°F6.8°C 48.0°F8.9°C 90% 1.6 mph SSW2.6 kmh SSW 1.6 mph2.6 kmh 29.83 in1010.2 mb 0.00 in0.0 mm 0.00 in0.0 mm 0.00 in0.0 mm
01:02 AM 44.9°F7.2°C 48.0°F8.9°C 90% 1.6 mph SE2.6 kmh SE 1.6 mph2.6 kmh 29.83 in1010.2 mb 0.00 in0.0 mm 0.00 in0.0 mm 0.00 in0.0 mm
01:05 AM 44.3°F6.8°C 47.4°F8.6°C 88% 2.0 mph SSE3.2 kmh SSE 2.0 mph3.2 kmh 29.83 in1010.2 mb 0.00 in0.0 mm 0.00 in0.0 mm 0.00 in0.0 mm
01:08 AM 44.7°F7.1°C 47.5°F8.6°C 88% Calm Calm -- 29.83 in1010.2 mb 0.00 in0.0 mm 0.00 in0.0 mm 0.00 in0.0 mm
01:11 AM 44.7°F7.1°C 47.7°F8.7°C 89% Calm Calm -- 29.83 in1010.2 mb 0.00 in0.0 mm 0.00 in0.0 mm 0.00 in0.0 mm
01:14 AM 44.5°F6.9°C 48.0°F8.9°C 89% Calm Calm -- 29.83 in1010.2 mb 0.00 in0.0 mm 0.00 in0.0 mm 0.00 in0.0 mm
01:17 AM 44.4°F6.9°C 47.8°F8.8°C 89% Calm Calm -- 29.83 in1010.2 mb 0.00 in0.0 mm 0.00 in0.0 mm 0.00 in0.0 mm
01:20 AM 44.5°F6.9°C 47.9°F8.8°C 89% Calm Calm -- 29.83 in1010.2 mb 0.00 in0.0 mm 0.00 in0.0 mm 0.00 in0.0 mm
01:23 AM 44.5°F6.9°C 48.0°F8.9°C 89% Calm Calm -- 29.83 in1010.2 mb 0.00 in0.0 mm 0.00 in0.0 mm 0.00 in0.0 mm
01:26 AM 44.4°F6.9°C 47.7°F8.7°C 89% Calm Calm -- 29.83 in1010.2 mb 0.00 in0.0 mm 0.00 in0.0 mm 0.00 in0.0 mm
01:29 AM 44.4°F6.9°C 47.3°F8.5°C 88% Calm Calm -- 29.83 in1010.2 mb 0.00 in0.0 mm 0.00 in0.0 mm 0.00 in0.0 mm
01:32 AM 44.4°F6.9°C 47.9°F8.8°C 89% 0.8 mph SE1.3 kmh SE 0.8 mph1.3 kmh 29.83 in1010.2 mb 0.00 in0.0 mm 0.00 in0.0 mm 0.00 in0.0 mm
01:35 AM 44.4°F6.9°C 48.0°F8.9°C 89% Calm Calm -- 29.83 in1010.2 mb 0.00 in0.0 mm 0.00 in0.0 mm 0.00 in0.0 mm
01:38 AM 44.3°F6.8°C 47.9°F8.8°C 89% Calm Calm -- 29.83 in1010.2 mb 0.00 in0.0 mm 0.00 in0.0 mm 0.00 in0.0 mm
01:41 AM 44.4°F6.9°C 47.9°F8.8°C 89% Calm Calm -- 29.83 in1010.2 mb 0.00 in0.0 mm 0.00 in0.0 mm 0.00 in0.0 mm
01:44 AM 44.6°F7.0°C 47.9°F8.8°C 89% 0.8 mph NNW1.3 kmh NNW 0.8 mph1.3 kmh 29.83 in1010.2 mb 0.00 in0.0 mm 0.00 in0.0 mm 0.00 in0.0 mm
01:47 AM 44.5°F6.9°C 47.7°F8.7°C 89% Calm Calm -- 29.83 in1010.2 mb 0.00 in0.0 mm 0.00 in0.0 mm 0.00 in0.0 mm
01:50 AM 44.4°F6.9°C 47.9°F8.8°C 89% Calm Calm -- 29.83 in1010.2 mb 0.00 in0.0 mm 0.00 in0.0 mm 0.00 in0.0 mm
01:53 AM 44.8°F7.1°C 47.7°F8.7°C 89% Calm Calm -- 29.83 in1010.2 mb 0.00 in0.0 mm 0.00 in0.0 mm 0.00 in0.0 mm
01:56 AM 44.9°F7.2°C 47.8°F8.8°C 89% 0.8 mph SSE1.3 kmh SSE 0.8 mph1.3 kmh 29.83 in1010.2 mb 0.00 in0.0 mm 0.00 in0.0 mm 0.00 in0.0 mm
01:59 AM 44.6°F7.0°C 47.7°F8.7°C 89% Calm Calm -- 29.83 in1010.2 mb 0.00 in0.0 mm 0.00 in0.0 mm 0.00 in0.0 mm
02:02 AM 44.4°F6.9°C 47.6°F8.7°C 89% Calm Calm -- 29.83 in1010.2 mb 0.00 in0.0 mm 0.00 in0.0 mm 0.00 in0.0 mm
02:05 AM 44.3°F6.8°C 47.9°F8.8°C 89% Calm Calm -- 29.83 in1010.2 mb 0.00 in0.0 mm 0.00 in0.0 mm 0.00 in0.0 mm
02:08 AM 44.0°F6.7°C 47.7°F8.7°C 88% Calm Calm -- 29.83 in1010.2 mb 0.00 in0.0 mm 0.00 in0.0 mm 0.00 in0.0 mm
02:11 AM 44.2°F6.8°C 47.8°F8.8°C 89% Calm Calm -- 29.83 in1010.2 mb 0.00 in0.0 mm 0.00 in0.0 mm 0.00 in0.0 mm
02:14 AM 44.0°F6.7°C 47.6°F8.7°C 89% Calm Calm -- 29.83 in1010.2 mb 0.00 in0.0 mm 0.00 in0.0 mm 0.00 in0.0 mm
02:17 AM 44.3°F6.8°C 47.6°F8.7°C 89% 0.4 mph SSE0.6 kmh SSE 0.4 mph0.6 kmh 29.83 in1010.2 mb 0.00 in0.0 mm 0.00 in0.0 mm 0.00 in0.0 mm
02:20 AM 44.4°F6.9°C 47.6°F8.7°C 89% Calm Calm -- 29.83 in1010.2 mb 0.00 in0.0 mm 0.00 in0.0 mm 0.00 in0.0 mm
02:23 AM 44.2°F6.8°C 47.7°F8.7°C 89% Calm Calm -- 29.83 in1010.2 mb 0.00 in0.0 mm 0.00 in0.0 mm 0.00 in0.0 mm
02:26 AM 43.9°F6.6°C 47.6°F8.7°C 88% Calm Calm -- 29.82 in1009.8 mb 0.00 in0.0 mm 0.00 in0.0 mm 0.00 in0.0 mm
02:29 AM 43.7°F6.5°C 47.6°F8.7°C 89% Calm Calm -- 29.82 in1009.8 mb 0.00 in0.0 mm 0.00 in0.0 mm 0.00 in0.0 mm
02:32 AM 43.9°F6.6°C 47.6°F8.7°C 89% Calm Calm -- 29.83 in1010.2 mb 0.00 in0.0 mm 0.00 in0.0 mm 0.00 in0.0 mm
02:35 AM 43.9°F6.6°C 47.6°F8.7°C 89% Calm Calm -- 29.83 in1010.2 mb 0.00 in0.0 mm 0.00 in0.0 mm 0.00 in0.0 mm
02:38 AM 43.9°F6.6°C 47.5°F8.6°C 89% Calm Calm -- 29.83 in1010.2 mb 0.00 in0.0 mm 0.00 in0.0 mm 0.00 in0.0 mm
02:41 AM 43.7°F6.5°C 47.6°F8.7°C 89% Calm Calm -- 29.82 in1009.8 mb 0.00 in0.0 mm 0.00 in0.0 mm 0.00 in0.0 mm
02:44 AM 43.8°F6.6°C 47.6°F8.7°C 89% Calm Calm -- 29.82 in1009.8 mb 0.00 in0.0 mm 0.00 in0.0 mm 0.00 in0.0 mm
02:47 AM 43.8°F6.6°C 47.5°F8.6°C 88% Calm Calm -- 29.83 in1010.2 mb 0.00 in0.0 mm 0.00 in0.0 mm 0.00 in0.0 mm
02:50 AM 43.7°F6.5°C 47.6°F8.7°C 89% Calm Calm -- 29.82 in1009.8 mb 0.00 in0.0 mm 0.00 in0.0 mm 0.00 in0.0 mm
02:53 AM 43.8°F6.6°C 47.3°F8.5°C 88% Calm Calm -- 29.83 in1010.2 mb 0.00 in0.0 mm 0.00 in0.0 mm 0.00 in0.0 mm
02:56 AM 43.6°F6.4°C 47.3°F8.5°C 88% Calm Calm -- 29.82 in1009.8 mb 0.00 in0.0 mm 0.00 in0.0 mm 0.00 in0.0 mm
02:59 AM 43.6°F6.4°C 47.5°F8.6°C 89% Calm Calm -- 29.82 in1009.8 mb 0.00 in0.0 mm 0.00 in0.0 mm 0.00 in0.0 mm
03:02 AM 43.5°F6.4°C 47.0°F8.3°C 88% Calm Calm -- 29.83 in1010.2 mb 0.00 in0.0 mm 0.00 in0.0 mm 0.00 in0.0 mm
03:05 AM 43.6°F6.4°C 47.3°F8.5°C 88% Calm Calm -- 29.82 in1009.8 mb 0.00 in0.0 mm 0.00 in0.0 mm 0.00 in0.0 mm
03:08 AM 43.4°F6.3°C 46.8°F8.2°C 87% Calm Calm -- 29.81 in1009.5 mb 0.00 in0.0 mm 0.00 in0.0 mm 0.00 in0.0 mm
03:11 AM 43.4°F6.3°C 47.1°F8.4°C 88% Calm Calm -- 29.81 in1009.5 mb 0.00 in0.0 mm 0.00 in0.0 mm 0.00 in0.0 mm
03:14 AM 43.5°F6.4°C 47.0°F8.3°C 88% Calm Calm -- 29.81 in1009.5 mb 0.00 in0.0 mm 0.00 in0.0 mm 0.00 in0.0 mm
03:17 AM 43.6°F6.4°C 47.2°F8.4°C 88% Calm Calm -- 29.81 in1009.5 mb 0.00 in0.0 mm 0.00 in0.0 mm 0.00 in0.0 mm
03:20 AM 43.6°F6.4°C 47.2°F8.4°C 88% Calm Calm -- 29.81 in1009.5 mb 0.00 in0.0 mm 0.00 in0.0 mm 0.00 in0.0 mm
03:23 AM 43.3°F6.3°C 46.9°F8.3°C 88% Calm Calm -- 29.81 in1009.5 mb 0.00 in0.0 mm 0.00 in0.0 mm 0.00 in0.0 mm
03:26 AM 43.0°F6.1°C 46.9°F8.3°C 88% Calm Calm -- 29.81 in1009.5 mb 0.00 in0.0 mm 0.00 in0.0 mm 0.00 in0.0 mm
03:29 AM 43.3°F6.3°C 47.2°F8.4°C 88% Calm Calm -- 29.81 in1009.5 mb 0.00 in0.0 mm 0.00 in0.0 mm 0.00 in0.0 mm
03:32 AM 43.6°F6.4°C 47.2°F8.4°C 88% Calm Calm -- 29.81 in1009.5 mb 0.00 in0.0 mm 0.00 in0.0 mm 0.00 in0.0 mm
03:35 AM 43.5°F6.4°C 47.0°F8.3°C 88% Calm Calm -- 29.81 in1009.5 mb 0.00 in0.0 mm 0.00 in0.0 mm 0.00 in0.0 mm
03:38 AM 43.8°F6.6°C 47.0°F8.3°C 88% Calm Calm -- 29.81 in1009.5 mb 0.00 in0.0 mm 0.00 in0.0 mm 0.00 in0.0 mm
03:41 AM 43.8°F6.6°C 47.4°F8.6°C 89% Calm Calm -- 29.81 in1009.5 mb 0.00 in0.0 mm 0.00 in0.0 mm 0.00 in0.0 mm
03:44 AM 43.6°F6.4°C 47.2°F8.4°C 89% Calm Calm -- 29.81 in1009.5 mb 0.00 in0.0 mm 0.00 in0.0 mm 0.00 in0.0 mm
03:47 AM 43.7°F6.5°C 47.2°F8.4°C 89% Calm Calm -- 29.81 in1009.5 mb 0.00 in0.0 mm 0.00 in0.0 mm 0.00 in0.0 mm
03:50 AM 43.7°F6.5°C 47.2°F8.4°C 89% Calm Calm -- 29.82 in1009.8 mb 0.00 in0.0 mm 0.00 in0.0 mm 0.00 in0.0 mm
03:53 AM 43.9°F6.6°C 47.2°F8.4°C 88% Calm Calm -- 29.82 in1009.8 mb 0.00 in0.0 mm 0.00 in0.0 mm 0.00 in0.0 mm
03:56 AM 43.9°F6.6°C 47.5°F8.6°C 89% Calm Calm -- 29.82 in1009.8 mb 0.00 in0.0 mm 0.00 in0.0 mm 0.00 in0.0 mm
03:59 AM 43.8°F6.6°C 47.2°F8.4°C 89% Calm Calm -- 29.81 in1009.5 mb 0.00 in0.0 mm 0.00 in0.0 mm 0.00 in0.0 mm
04:02 AM 43.8°F6.6°C 47.3°F8.5°C 89% Calm Calm -- 29.81 in1009.5 mb 0.00 in0.0 mm 0.00 in0.0 mm 0.00 in0.0 mm
04:05 AM 44.0°F6.7°C 47.3°F8.5°C 89% Calm Calm -- 29.81 in1009.5 mb 0.00 in0.0 mm 0.00 in0.0 mm 0.00 in0.0 mm
04:08 AM 43.8°F6.6°C 47.2°F8.4°C 89% Calm Calm -- 29.81 in1009.5 mb 0.00 in0.0 mm 0.00 in0.0 mm 0.00 in0.0 mm
04:11 AM 43.8°F6.6°C 47.3°F8.5°C 89% Calm Calm -- 29.81 in1009.5 mb 0.00 in0.0 mm 0.00 in0.0 mm 0.00 in0.0 mm
04:14 AM 43.8°F6.6°C 47.3°F8.5°C 89% Calm Calm -- 29.81 in1009.5 mb 0.00 in0.0 mm 0.00 in0.0 mm 0.00 in0.0 mm
04:17 AM 43.8°F6.6°C 47.6°F8.7°C 89% Calm Calm -- 29.81 in1009.5 mb 0.00 in0.0 mm 0.00 in0.0 mm 0.00 in0.0 mm
04:20 AM 43.9°F6.6°C 47.7°F8.7°C 90% Calm Calm -- 29.81 in1009.5 mb 0.00 in0.0 mm 0.00 in0.0 mm 0.00 in0.0 mm
04:23 AM 43.9°F6.6°C 47.5°F8.6°C 90% 0.8 mph SSE1.3 kmh SSE 0.8 mph1.3 kmh 29.81 in1009.5 mb 0.00 in0.0 mm 0.00 in0.0 mm 0.00 in0.0 mm
04:29 AM 44.0°F6.7°C 47.4°F8.6°C 90% Calm Calm -- 29.81 in1009.5 mb 0.00 in0.0 mm 0.00 in0.0 mm 0.00 in0.0 mm
04:38 AM 43.9°F6.6°C 47.5°F8.6°C 89% Calm Calm -- 29.81 in1009.5 mb 0.00 in0.0 mm 0.00 in0.0 mm 0.00 in0.0 mm
04:41 AM 44.2°F6.8°C 47.5°F8.6°C 90% Calm Calm -- 29.81 in1009.5 mb 0.00 in0.0 mm 0.00 in0.0 mm 0.00 in0.0 mm
04:44 AM 44.2°F6.8°C 47.6°F8.7°C 89% Calm Calm -- 29.81 in1009.5 mb 0.00 in0.0 mm 0.00 in0.0 mm 0.00 in0.0 mm
04:47 AM 44.2°F6.8°C 47.7°F8.7°C 89% Calm Calm -- 29.81 in1009.5 mb 0.00 in0.0 mm 0.00 in0.0 mm 0.00 in0.0 mm
04:50 AM 44.0°F6.7°C 47.4°F8.6°C 89% Calm Calm -- 29.81 in1009.5 mb 0.00 in0.0 mm 0.00 in0.0 mm 0.00 in0.0 mm
04:53 AM 44.0°F6.7°C 47.7°F8.7°C 89% Calm Calm -- 29.81 in1009.5 mb 0.00 in0.0 mm 0.00 in0.0 mm 0.00 in0.0 mm
04:56 AM 44.0°F6.7°C 47.5°F8.6°C 89% Calm Calm -- 29.80 in1009.1 mb 0.00 in0.0 mm 0.00 in0.0 mm 0.00 in0.0 mm
04:59 AM 43.7°F6.5°C 47.6°F8.7°C 89% Calm Calm -- 29.81 in1009.5 mb 0.00 in0.0 mm 0.00 in0.0 mm 0.00 in0.0 mm
05:02 AM 43.6°F6.4°C 47.5°F8.6°C 89% Calm Calm -- 29.81 in1009.5 mb 0.00 in0.0 mm 0.00 in0.0 mm 0.00 in0.0 mm
05:05 AM 43.4°F6.3°C 47.5°F8.6°C 89% Calm Calm -- 29.81 in1009.5 mb 0.00 in0.0 mm 0.00 in0.0 mm 0.00 in0.0 mm
05:08 AM 43.4°F6.3°C 47.2°F8.4°C 88% Calm Calm -- 29.80 in1009.1 mb 0.00 in0.0 mm 0.00 in0.0 mm 0.00 in0.0 mm
05:11 AM 43.0°F6.1°C 47.2°F8.4°C 88% Calm Calm -- 29.80 in1009.1 mb 0.00 in0.0 mm 0.00 in0.0 mm 0.00 in0.0 mm
05:14 AM 42.8°F6.0°C 47.0°F8.3°C 88% Calm Calm -- 29.80 in1009.1 mb 0.00 in0.0 mm 0.00 in0.0 mm 0.00 in0.0 mm
05:17 AM 42.5°F5.8°C 46.7°F8.2°C 87% Calm Calm -- 29.80 in1009.1 mb 0.00 in0.0 mm 0.00 in0.0 mm 0.00 in0.0 mm
05:20 AM 42.4°F5.8°C 46.4°F8.0°C 87% 0.8 mph SE1.3 kmh SE 0.8 mph1.3 kmh 29.80 in1009.1 mb 0.00 in0.0 mm 0.00 in0.0 mm 0.00 in0.0 mm
05:23 AM 42.0°F5.6°C 46.3°F7.9°C 87% Calm Calm -- 29.81 in1009.5 mb 0.00 in0.0 mm 0.00 in0.0 mm 0.00 in0.0 mm
05:26 AM 42.4°F5.8°C 46.2°F7.9°C 87% Calm Calm -- 29.81 in1009.5 mb 0.00 in0.0 mm 0.00 in0.0 mm 0.00 in0.0 mm
05:29 AM 42.6°F5.9°C 46.4°F8.0°C 87% Calm Calm -- 29.80 in1009.1 mb 0.00 in0.0 mm 0.00 in0.0 mm 0.00 in0.0 mm
05:32 AM 42.8°F6.0°C 46.2°F7.9°C 87% Calm Calm -- 29.81 in1009.5 mb 0.00 in0.0 mm 0.00 in0.0 mm 0.00 in0.0 mm
05:35 AM 42.9°F6.1°C 46.3°F7.9°C 87% Calm Calm -- 29.80 in1009.1 mb 0.00 in0.0 mm 0.00 in0.0 mm 0.00 in0.0 mm
05:38 AM 42.9°F6.1°C 46.3°F7.9°C 87% Calm Calm -- 29.80 in1009.1 mb 0.00 in0.0 mm 0.00 in0.0 mm 0.00 in0.0 mm
05:41 AM 43.0°F6.1°C 46.4°F8.0°C 87% Calm Calm -- 29.80 in1009.1 mb 0.00 in0.0 mm 0.00 in0.0 mm 0.00 in0.0 mm
05:44 AM 43.3°F6.3°C 46.4°F8.0°C 88% 0.8 mph NNW1.3 kmh NNW 0.8 mph1.3 kmh 29.80 in1009.1 mb 0.00 in0.0 mm 0.00 in0.0 mm 0.00 in0.0 mm
05:47 AM 44.2°F6.8°C 46.5°F8.1°C 88% 2.4 mph 3.9 kmh 2.4 mph3.9 kmh 29.80 in1009.1 mb 0.00 in0.0 mm 0.00 in0.0 mm 0.00 in0.0 mm
05:50 AM 43.9°F6.6°C 46.4°F8.0°C 88% 0.8 mph WSW1.3 kmh WSW 0.8 mph1.3 kmh 29.80 in1009.1 mb 0.00 in0.0 mm 0.00 in0.0 mm 0.00 in0.0 mm
05:53 AM 44.3°F6.8°C 46.5°F8.1°C 88% Calm Calm -- 29.80 in1009.1 mb 0.00 in0.0 mm 0.00 in0.0 mm 0.00 in0.0 mm
05:56 AM 43.9°F6.6°C 46.6°F8.1°C 87% Calm Calm -- 29.80 in1009.1 mb 0.00 in0.0 mm 0.00 in0.0 mm 0.00 in0.0 mm
05:59 AM 44.0°F6.7°C 46.3°F7.9°C 87% Calm Calm -- 29.80 in1009.1 mb 0.00 in0.0 mm 0.00 in0.0 mm 0.00 in0.0 mm
06:02 AM 44.2°F6.8°C 46.4°F8.0°C 87% Calm Calm -- 29.80 in1009.1 mb 0.00 in0.0 mm 0.00 in0.0 mm 0.00 in0.0 mm
06:05 AM 44.2°F6.8°C 46.7°F8.2°C 87% Calm Calm -- 29.80 in1009.1 mb 0.00 in0.0 mm 0.00 in0.0 mm 0.00 in0.0 mm
06:08 AM 44.7°F7.1°C 46.7°F8.2°C 87% Calm Calm -- 29.80 in1009.1 mb 0.00 in0.0 mm 0.00 in0.0 mm 0.00 in0.0 mm
06:11 AM 44.2°F6.8°C 46.4°F8.0°C 87% Calm Calm -- 29.80 in1009.1 mb 0.00 in0.0 mm 0.00 in0.0 mm 0.00 in0.0 mm
06:14 AM 44.4°F6.9°C 46.7°F8.2°C 86% Calm Calm -- 29.80 in1009.1 mb 0.00 in0.0 mm 0.00 in0.0 mm 0.00 in0.0 mm
06:17 AM 43.8°F6.6°C 46.3°F7.9°C 86% Calm Calm -- 29.80 in1009.1 mb 0.00 in0.0 mm 0.00 in0.0 mm 0.00 in0.0 mm
06:20 AM 43.4°F6.3°C 46.2°F7.9°C 86% 2.0 mph SW3.2 kmh SW 2.0 mph3.2 kmh 29.80 in1009.1 mb 0.00 in0.0 mm 0.00 in0.0 mm 0.00 in0.0 mm
06:23 AM 43.4°F6.3°C 46.1°F7.8°C 85% Calm Calm -- 29.80 in1009.1 mb 0.00 in0.0 mm 0.00 in0.0 mm 0.00 in0.0 mm
06:26 AM 42.8°F6.0°C 46.3°F7.9°C 85% Calm Calm -- 29.80 in1009.1 mb 0.00 in0.0 mm 0.00 in0.0 mm 0.00 in0.0 mm
06:29 AM 42.5°F5.8°C 45.8°F7.7°C 84% 1.2 mph S1.9 kmh S 1.2 mph1.9 kmh 29.80 in1009.1 mb 0.00 in0.0 mm 0.00 in0.0 mm 0.00 in0.0 mm
06:32 AM 42.0°F5.6°C 45.8°F7.7°C 85% Calm Calm -- 29.80 in1009.1 mb 0.00 in0.0 mm 0.00 in0.0 mm 0.00 in0.0 mm
06:35 AM 41.8°F5.4°C 45.4°F7.4°C 85% Calm Calm -- 29.80 in1009.1 mb 0.00 in0.0 mm 0.00 in0.0 mm 0.00 in0.0 mm
06:38 AM 41.6°F5.3°C 45.4°F7.4°C 85% Calm Calm -- 29.80 in1009.1 mb 0.00 in0.0 mm 0.00 in0.0 mm 0.00 in0.0 mm
06:41 AM 41.6°F5.3°C 45.3°F7.4°C 85% Calm Calm -- 29.79 in1008.8 mb 0.00 in0.0 mm 0.00 in0.0 mm 0.00 in0.0 mm
06:44 AM 40.7°F4.8°C 45.0°F7.2°C 84% 2.3 mph SSE3.7 kmh SSE 2.4 mph3.9 kmh 29.79 in1008.8 mb 0.00 in0.0 mm 0.00 in0.0 mm 0.00 in0.0 mm
06:47 AM 39.9°F4.4°C 44.0°F6.7°C 82% Calm Calm -- 29.79 in1008.8 mb 0.00 in0.0 mm 0.00 in0.0 mm 0.00 in0.0 mm
06:50 AM 39.9°F4.4°C 43.9°F6.6°C 83% Calm Calm -- 29.80 in1009.1 mb 0.00 in0.0 mm 0.00 in0.0 mm 0.00 in0.0 mm
06:53 AM 39.7°F4.3°C 43.8°F6.6°C 83% Calm Calm -- 29.79 in1008.8 mb 0.00 in0.0 mm 0.00 in0.0 mm 0.00 in0.0 mm
06:56 AM 39.5°F4.2°C 43.7°F6.5°C 83% Calm Calm -- 29.79 in1008.8 mb 0.00 in0.0 mm 0.00 in0.0 mm 0.00 in0.0 mm
06:59 AM 39.3°F4.1°C 43.7°F6.5°C 83% Calm Calm -- 29.79 in1008.8 mb 0.00 in0.0 mm 0.00 in0.0 mm 0.00 in0.0 mm
07:02 AM 39.7°F4.3°C 43.3°F6.3°C 83% Calm Calm -- 29.79 in1008.8 mb 0.00 in0.0 mm 0.00 in0.0 mm 0.00 in0.0 mm
07:05 AM 39.3°F4.1°C 43.4°F6.3°C 84% Calm Calm -- 29.79 in1008.8 mb 0.00 in0.0 mm 0.00 in0.0 mm 0.00 in0.0 mm
07:08 AM 39.5°F4.2°C 43.5°F6.4°C 84% Calm Calm -- 29.80 in1009.1 mb 0.00 in0.0 mm 0.00 in0.0 mm 0.00 in0.0 mm
07:11 AM 40.7°F4.8°C 43.7°F6.5°C 84% Calm Calm -- 29.79 in1008.8 mb 0.00 in0.0 mm 0.00 in0.0 mm 0.00 in0.0 mm
07:14 AM 40.7°F4.8°C 43.9°F6.6°C 85% Calm Calm -- 29.79 in1008.8 mb 0.00 in0.0 mm 0.00 in0.0 mm 0.00 in0.0 mm
07:17 AM 40.4°F4.7°C 44.0°F6.7°C 85% Calm Calm -- 29.79 in1008.8 mb 0.00 in0.0 mm 0.00 in0.0 mm 0.00 in0.0 mm
07:20 AM 40.6°F4.8°C 44.3°F6.8°C 85% Calm Calm -- 29.79 in1008.8 mb 0.00 in0.0 mm 0.00 in0.0 mm 0.00 in0.0 mm
07:23 AM 40.8°F4.9°C 44.3°F6.8°C 86% Calm Calm -- 29.79 in1008.8 mb 0.00 in0.0 mm 0.00 in0.0 mm 0.00 in0.0 mm
07:26 AM 40.7°F4.8°C 43.9°F6.6°C 85% Calm Calm -- 29.80 in1009.1 mb 0.00 in0.0 mm 0.00 in0.0 mm 0.00 in0.0 mm
07:29 AM 40.8°F4.9°C 44.4°F6.9°C 86% Calm Calm -- 29.79 in1008.8 mb 0.00 in0.0 mm 0.00 in0.0 mm 0.00 in0.0 mm
07:32 AM 41.0°F5.0°C 44.2°F6.8°C 86% Calm Calm -- 29.79 in1008.8 mb 0.00 in0.0 mm 0.00 in0.0 mm 0.00 in0.0 mm
07:35 AM 41.5°F5.3°C 44.5°F6.9°C 86% Calm Calm -- 29.80 in1009.1 mb 0.00 in0.0 mm 0.00 in0.0 mm 0.00 in0.0 mm
07:38 AM 41.6°F5.3°C 44.7°F7.1°C 87% Calm Calm -- 29.79 in1008.8 mb 0.00 in0.0 mm 0.00 in0.0 mm 0.00 in0.0 mm
07:41 AM 41.6°F5.3°C 44.8°F7.1°C 87% Calm Calm -- 29.79 in1008.8 mb 0.00 in0.0 mm 0.00 in0.0 mm 0.00 in0.0 mm
07:44 AM 41.5°F5.3°C 44.9°F7.2°C 87% Calm Calm -- 29.79 in1008.8 mb 0.00 in0.0 mm 0.00 in0.0 mm 0.00 in0.0 mm
07:47 AM 41.6°F5.3°C 45.1°F7.3°C 87% Calm Calm -- 29.80 in1009.1 mb 0.00 in0.0 mm 0.00 in0.0 mm 0.00 in0.0 mm
07:50 AM 42.0°F5.6°C 45.0°F7.2°C 87% Calm Calm -- 29.79 in1008.8 mb 0.00 in0.0 mm 0.00 in0.0 mm 0.00 in0.0 mm
07:53 AM 42.1°F5.6°C 45.1°F7.3°C 88% Calm Calm -- 29.80 in1009.1 mb 0.00 in0.0 mm 0.00 in0.0 mm 0.00 in0.0 mm
07:56 AM 42.6°F5.9°C 45.3°F7.4°C 87% Calm Calm -- 29.80 in1009.1 mb 0.00 in0.0 mm 0.00 in0.0 mm 0.00 in0.0 mm
07:59 AM 42.8°F6.0°C 45.7°F7.6°C 89% Calm Calm -- 29.79 in1008.8 mb 0.00 in0.0 mm 0.00 in0.0 mm 0.00 in0.0 mm
08:02 AM 43.0°F6.1°C 46.0°F7.8°C 89% Calm Calm -- 29.80 in1009.1 mb 0.00 in0.0 mm 0.00 in0.0 mm 0.00 in0.0 mm
08:05 AM 43.0°F6.1°C 45.9°F7.7°C 89% Calm Calm -- 29.80 in1009.1 mb 0.00 in0.0 mm 0.00 in0.0 mm 0.00 in0.0 mm
08:11 AM 43.1°F6.2°C 45.9°F7.7°C 88% Calm Calm -- 29.80 in1009.1 mb 0.00 in0.0 mm 0.00 in0.0 mm 0.00 in0.0 mm
08:14 AM 43.3°F6.3°C 46.0°F7.8°C 89% Calm Calm -- 29.80 in1009.1 mb 0.00 in0.0 mm 0.00 in0.0 mm 0.00 in0.0 mm
08:17 AM 43.4°F6.3°C 46.1°F7.8°C 88% Calm Calm -- 29.80 in1009.1 mb 0.00 in0.0 mm 0.00 in0.0 mm 0.00 in0.0 mm
08:20 AM 43.4°F6.3°C 46.3°F7.9°C 89% 0.4 mph NNW0.6 kmh NNW 0.4 mph0.6 kmh 29.79 in1008.8 mb 0.00 in0.0 mm 0.00 in0.0 mm 0.00 in0.0 mm
08:23 AM 43.6°F6.4°C 46.3°F7.9°C 89% Calm Calm -- 29.80 in1009.1 mb 0.00 in0.0 mm 0.00 in0.0 mm 0.00 in0.0 mm
08:26 AM 43.6°F6.4°C 46.2°F7.9°C 88% 0.4 mph SE0.6 kmh SE 0.4 mph0.6 kmh 29.79 in1008.8 mb 0.00 in0.0 mm 0.00 in0.0 mm 0.00 in0.0 mm
08:29 AM 43.7°F6.5°C 46.4°F8.0°C 88% 0.8 mph SE1.3 kmh SE 0.8 mph1.3 kmh 29.79 in1008.8 mb 0.00 in0.0 mm 0.00 in0.0 mm 0.00 in0.0 mm
08:32 AM 43.9°F6.6°C 46.3°F7.9°C 88% Calm Calm -- 29.80 in1009.1 mb 0.00 in0.0 mm 0.00 in0.0 mm 0.00 in0.0 mm
08:35 AM 43.9°F6.6°C 46.4°F8.0°C 88% Calm Calm -- 29.80 in1009.1 mb 0.00 in0.0 mm 0.00 in0.0 mm 0.00 in0.0 mm
08:38 AM 44.3°F6.8°C 46.5°F8.1°C 88% 0.4 mph NNW0.6 kmh NNW 0.4 mph0.6 kmh 29.80 in1009.1 mb 0.00 in0.0 mm 0.00 in0.0 mm 0.00 in0.0 mm
08:41 AM 44.2°F6.8°C 46.6°F8.1°C 88% 0.4 mph SE0.6 kmh SE 0.4 mph0.6 kmh 29.80 in1009.1 mb 0.00 in0.0 mm 0.00 in0.0 mm 0.00 in0.0 mm
08:44 AM 44.2°F6.8°C 46.6°F8.1°C 88% Calm Calm -- 29.80 in1009.1 mb 0.00 in0.0 mm 0.00 in0.0 mm 0.00 in0.0 mm
08:47 AM 44.2°F6.8°C 46.5°F8.1°C 88% Calm Calm -- 29.80 in1009.1 mb 0.00 in0.0 mm 0.00 in0.0 mm 0.00 in0.0 mm
08:50 AM 44.3°F6.8°C 46.4°F8.0°C 88% Calm Calm -- 29.80 in1009.1 mb 0.00 in0.0 mm 0.00 in0.0 mm 0.00 in0.0 mm
08:53 AM 44.2°F6.8°C 46.5°F8.1°C 87% 0.4 mph ESE0.6 kmh ESE 0.4 mph0.6 kmh 29.80 in1009.1 mb 0.00 in0.0 mm 0.00 in0.0 mm 0.00 in0.0 mm
08:56 AM 44.0°F6.7°C 46.6°F8.1°C 88% Calm Calm -- 29.80 in1009.1 mb 0.00 in0.0 mm 0.00 in0.0 mm 0.00 in0.0 mm
08:59 AM 44.0°F6.7°C 46.6°F8.1°C 88% Calm Calm -- 29.80 in1009.1 mb 0.00 in0.0 mm 0.00 in0.0 mm 0.00 in0.0 mm
09:05 AM 44.2°F6.8°C 46.7°F8.2°C 88% Calm Calm -- 29.80 in1009.1 mb 0.00 in0.0 mm 0.00 in0.0 mm 0.00 in0.0 mm
09:08 AM 44.3°F6.8°C 46.8°F8.2°C 88% Calm Calm -- 29.80 in1009.1 mb 0.00 in0.0 mm 0.00 in0.0 mm 0.00 in0.0 mm
09:11 AM 44.3°F6.8°C 46.7°F8.2°C 88% 0.8 mph E1.3 kmh E 0.8 mph1.3 kmh 29.80 in1009.1 mb 0.00 in0.0 mm 0.00 in0.0 mm 0.02 in0.5 mm
09:14 AM 44.3°F6.8°C 46.6°F8.1°C 88% Calm Calm -- 29.80 in1009.1 mb 0.00 in0.0 mm 0.00 in0.0 mm 0.02 in0.5 mm
09:17 AM 44.2°F6.8°C 46.9°F8.3°C 88% 0.4 mph ESE0.6 kmh ESE 0.4 mph0.6 kmh 29.80 in1009.1 mb 0.00 in0.0 mm 0.00 in0.0 mm 0.02 in0.5 mm
09:20 AM 44.2°F6.8°C 46.9°F8.3°C 88% Calm Calm -- 29.80 in1009.1 mb 0.00 in0.0 mm 0.00 in0.0 mm 0.02 in0.5 mm
09:23 AM 44.2°F6.8°C 47.0°F8.3°C 88% Calm Calm -- 29.80 in1009.1 mb 0.00 in0.0 mm 0.00 in0.0 mm 0.02 in0.5 mm
09:26 AM 44.3°F6.8°C 46.8°F8.2°C 89% 0.8 mph NNW1.3 kmh NNW 0.8 mph1.3 kmh 29.80 in1009.1 mb 0.00 in0.0 mm 0.00 in0.0 mm 0.02 in0.5 mm
09:29 AM 44.3°F6.8°C 47.1°F8.4°C 89% 0.4 mph SE0.6 kmh SE 0.4 mph0.6 kmh 29.80 in1009.1 mb 0.00 in0.0 mm 0.00 in0.0 mm 0.02 in0.5 mm
09:32 AM 44.4°F6.9°C 47.2°F8.4°C 89% Calm Calm -- 29.80 in1009.1 mb 0.00 in0.0 mm 0.00 in0.0 mm 0.02 in0.5 mm
09:35 AM 44.4°F6.9°C 46.6°F8.1°C 88% 0.4 mph SE0.6 kmh SE 0.4 mph0.6 kmh 29.80 in1009.1 mb 0.00 in0.0 mm 0.00 in0.0 mm 0.02 in0.5 mm
09:38 AM 44.4°F6.9°C 47.2°F8.4°C 89% 0.4 mph SE0.6 kmh SE 0.4 mph0.6 kmh 29.80 in1009.1 mb 0.00 in0.0 mm 0.00 in0.0 mm 0.02 in0.5 mm
09:41 AM 44.5°F6.9°C 47.1°F8.4°C 89% Calm Calm -- 29.80 in1009.1 mb 0.00 in0.0 mm 0.00 in0.0 mm 0.02 in0.5 mm
09:44 AM 44.6°F7.0°C 47.1°F8.4°C 89% Calm Calm -- 29.80 in1009.1 mb 0.00 in0.0 mm 0.00 in0.0 mm 0.02 in0.5 mm
09:47 AM 44.7°F7.1°C 46.9°F8.3°C 88% Calm Calm -- 29.80 in1009.1 mb 0.00 in0.0 mm 0.00 in0.0 mm 0.02 in0.5 mm
09:50 AM 44.6°F7.0°C 47.2°F8.4°C 89% 1.2 mph SE1.9 kmh SE 1.2 mph1.9 kmh 29.80 in1009.1 mb 0.00 in0.0 mm 0.00 in0.0 mm 0.02 in0.5 mm
09:53 AM 44.6°F7.0°C 47.0°F8.3°C 88% 0.4 mph SE0.6 kmh SE 0.4 mph0.6 kmh 29.80 in1009.1 mb 0.00 in0.0 mm 0.00 in0.0 mm 0.02 in0.5 mm
09:56 AM 44.5°F6.9°C 47.1°F8.4°C 88% Calm Calm -- 29.80 in1009.1 mb 0.00 in0.0 mm 0.00 in0.0 mm 0.02 in0.5 mm
09:59 AM 44.4°F6.9°C 47.1°F8.4°C 88% Calm Calm -- 29.80 in1009.1 mb 0.00 in0.0 mm 0.00 in0.0 mm 0.02 in0.5 mm
10:02 AM 44.4°F6.9°C 47.2°F8.4°C 88% Calm Calm -- 29.80 in1009.1 mb 0.00 in0.0 mm 0.00 in0.0 mm 0.02 in0.5 mm
10:05 AM 44.5°F6.9°C 47.1°F8.4°C 88% Calm Calm -- 29.80 in1009.1 mb 0.00 in0.0 mm 0.00 in0.0 mm 0.04 in1.0 mm
10:08 AM 44.6°F7.0°C 47.2°F8.4°C 89% Calm Calm -- 29.80 in1009.1 mb 0.00 in0.0 mm 0.00 in0.0 mm 0.04 in1.0 mm
10:11 AM 44.4°F6.9°C 47.5°F8.6°C 89% 1.6 mph SE2.6 kmh SE 1.6 mph2.6 kmh 29.80 in1009.1 mb 0.00 in0.0 mm 0.00 in0.0 mm 0.04 in1.0 mm
10:17 AM 44.3°F6.8°C 47.6°F8.7°C 90% 1.6 mph SE2.6 kmh SE 1.6 mph2.6 kmh 29.80 in1009.1 mb 0.00 in0.0 mm 0.00 in0.0 mm 0.04 in1.0 mm
10:20 AM 44.5°F6.9°C 47.2°F8.4°C 90% Calm Calm -- 29.80 in1009.1 mb 0.00 in0.0 mm 0.00 in0.0 mm 0.04 in1.0 mm
10:23 AM 44.7°F7.1°C 47.6°F8.7°C 90% Calm Calm -- 29.80 in1009.1 mb 0.00 in0.0 mm 0.00 in0.0 mm 0.04 in1.0 mm
10:26 AM 44.7°F7.1°C 47.4°F8.6°C 89% Calm Calm -- 29.80 in1009.1 mb 0.00 in0.0 mm 0.00 in0.0 mm 0.04 in1.0 mm
10:29 AM 45.1°F7.3°C 47.3°F8.5°C 89% 1.2 mph NNW1.9 kmh NNW 1.2 mph1.9 kmh 29.80 in1009.1 mb 0.00 in0.0 mm 0.00 in0.0 mm 0.04 in1.0 mm
10:32 AM 45.2°F7.3°C 47.8°F8.8°C 90% 1.6 mph SE2.6 kmh SE 1.6 mph2.6 kmh 29.80 in1009.1 mb 0.00 in0.0 mm 0.00 in0.0 mm 0.06 in1.5 mm
10:35 AM 45.1°F7.3°C 47.5°F8.6°C 90% 0.4 mph ESE0.6 kmh ESE 0.4 mph0.6 kmh 29.80 in1009.1 mb 0.00 in0.0 mm 0.00 in0.0 mm 0.06 in1.5 mm
10:38 AM 45.1°F7.3°C 47.7°F8.7°C 90% 2.8 mph NNW4.5 kmh NNW 2.8 mph4.5 kmh 29.80 in1009.1 mb 0.00 in0.0 mm 0.00 in0.0 mm 0.06 in1.5 mm
10:44 AM 45.2°F7.3°C 47.9°F8.8°C 91% 3.6 mph SE5.8 kmh SE 3.7 mph6.0 kmh 29.80 in1009.1 mb 0.00 in0.0 mm 0.00 in0.0 mm 0.06 in1.5 mm
10:47 AM 45.1°F7.3°C 47.7°F8.7°C 91% 3.6 mph SE5.8 kmh SE 3.6 mph5.8 kmh 29.80 in1009.1 mb 0.00 in0.0 mm 0.00 in0.0 mm 0.06 in1.5 mm
10:50 AM 44.9°F7.2°C 47.7°F8.7°C 91% 5.2 mph SE8.4 kmh SE 5.2 mph8.4 kmh 29.80 in1009.1 mb 0.00 in0.0 mm 0.00 in0.0 mm 0.06 in1.5 mm
10:53 AM 44.8°F7.1°C 47.6°F8.7°C 90% 4.0 mph SE6.4 kmh SE 4.1 mph6.6 kmh 29.80 in1009.1 mb 0.00 in0.0 mm 0.00 in0.0 mm 0.06 in1.5 mm
10:56 AM 44.9°F7.2°C 47.8°F8.8°C 91% 3.2 mph SE5.1 kmh SE 3.3 mph5.3 kmh 29.80 in1009.1 mb 0.00 in0.0 mm 0.00 in0.0 mm 0.06 in1.5 mm
10:59 AM 45.1°F7.3°C 47.7°F8.7°C 91% 4.0 mph SE6.4 kmh SE 4.1 mph6.6 kmh 29.79 in1008.8 mb 0.00 in0.0 mm 0.00 in0.0 mm 0.06 in1.5 mm
11:02 AM 45.4°F7.4°C 47.9°F8.8°C 91% 2.8 mph SE4.5 kmh SE 2.8 mph4.5 kmh 29.79 in1008.8 mb 0.00 in0.0 mm 0.00 in0.0 mm 0.06 in1.5 mm
11:05 AM 45.6°F7.6°C 48.2°F9.0°C 91% 0.8 mph SE1.3 kmh SE 0.8 mph1.3 kmh 29.79 in1008.8 mb 0.00 in0.0 mm 0.00 in0.0 mm 0.06 in1.5 mm
11:08 AM 46.0°F7.8°C 48.4°F9.1°C 91% 0.4 mph NNW0.6 kmh NNW 0.4 mph0.6 kmh 29.79 in1008.8 mb 0.00 in0.0 mm 0.00 in0.0 mm 0.06 in1.5 mm
11:11 AM 46.3°F7.9°C 48.3°F9.1°C 91% 2.0 mph SE3.2 kmh SE 2.0 mph3.2 kmh 29.79 in1008.8 mb 0.00 in0.0 mm 0.00 in0.0 mm 0.06 in1.5 mm
11:14 AM 47.0°F8.3°C 48.4°F9.1°C 90% 2.0 mph SE3.2 kmh SE 2.0 mph3.2 kmh 29.79 in1008.8 mb 0.00 in0.0 mm 0.00 in0.0 mm 0.06 in1.5 mm
11:17 AM 47.5°F8.6°C 49.0°F9.4°C 92% 0.8 mph ESE1.3 kmh ESE 0.8 mph1.3 kmh 29.79 in1008.8 mb 0.00 in0.0 mm 0.00 in0.0 mm 0.06 in1.5 mm
11:20 AM 47.9°F8.8°C 49.4°F9.7°C 91% 1.6 mph NNW2.6 kmh NNW 1.6 mph2.6 kmh 29.79 in1008.8 mb 0.00 in0.0 mm 0.00 in0.0 mm 0.06 in1.5 mm
11:23 AM 47.6°F8.7°C 49.5°F9.7°C 91% 2.0 mph SSE3.2 kmh SSE 2.0 mph3.2 kmh 29.79 in1008.8 mb 0.00 in0.0 mm 0.00 in0.0 mm 0.06 in1.5 mm
11:26 AM 47.5°F8.6°C 49.4°F9.7°C 90% 0.4 mph NNW0.6 kmh NNW 0.4 mph0.6 kmh 29.79 in1008.8 mb 0.00 in0.0 mm 0.00 in0.0 mm 0.06 in1.5 mm
11:29 AM 47.5°F8.6°C 49.1°F9.5°C 90% Calm Calm -- 29.79 in1008.8 mb 0.00 in0.0 mm 0.00 in0.0 mm 0.06 in1.5 mm
11:32 AM 47.3°F8.5°C 49.2°F9.6°C 90% 0.4 mph SE0.6 kmh SE 0.4 mph0.6 kmh 29.79 in1008.8 mb 0.00 in0.0 mm 0.00 in0.0 mm 0.06 in1.5 mm
11:35 AM 47.3°F8.5°C 49.3°F9.6°C 90% 1.6 mph NNW2.6 kmh NNW 1.6 mph2.6 kmh 29.79 in1008.8 mb 0.00 in0.0 mm 0.00 in0.0 mm 0.06 in1.5 mm
11:38 AM 47.5°F8.6°C 49.3°F9.6°C 90% Calm Calm -- 29.79 in1008.8 mb 0.00 in0.0 mm 0.00 in0.0 mm 0.06 in1.5 mm
11:41 AM 47.2°F8.4°C 49.3°F9.6°C 89% 0.4 mph NNW0.6 kmh NNW 0.4 mph0.6 kmh 29.79 in1008.8 mb 0.00 in0.0 mm 0.00 in0.0 mm 0.06 in1.5 mm
11:44 AM 47.3°F8.5°C 49.4°F9.7°C 90% 0.4 mph SE0.6 kmh SE 0.4 mph0.6 kmh 29.79 in1008.8 mb 0.00 in0.0 mm 0.00 in0.0 mm 0.06 in1.5 mm
11:47 AM 47.4°F8.6°C 49.4°F9.7°C 89% 2.8 mph SE4.5 kmh SE 2.8 mph4.5 kmh 29.79 in1008.8 mb 0.00 in0.0 mm 0.00 in0.0 mm 0.06 in1.5 mm
11:50 AM 47.8°F8.8°C 49.4°F9.7°C 89% 2.8 mph SE4.5 kmh SE 2.8 mph4.5 kmh 29.79 in1008.8 mb 0.00 in0.0 mm 0.00 in0.0 mm 0.06 in1.5 mm
11:56 AM 47.9°F8.8°C 49.5°F9.7°C 89% Calm Calm -- 29.79 in1008.8 mb 0.00 in0.0 mm 0.00 in0.0 mm 0.06 in1.5 mm
11:59 AM 47.8°F8.8°C 49.5°F9.7°C 89% Calm Calm -- 29.79 in1008.8 mb 0.00 in0.0 mm 0.00 in0.0 mm 0.06 in1.5 mm
12:02 PM 47.6°F8.7°C 49.6°F9.8°C 89% 1.2 mph ESE1.9 kmh ESE 1.2 mph1.9 kmh 29.79 in1008.8 mb 0.00 in0.0 mm 0.00 in0.0 mm 0.06 in1.5 mm
12:05 PM 47.8°F8.8°C 49.7°F9.8°C 89% Calm Calm -- 29.79 in1008.8 mb 0.00 in0.0 mm 0.00 in0.0 mm 0.06 in1.5 mm
12:08 PM 47.5°F8.6°C 49.6°F9.8°C 89% 0.8 mph SE1.3 kmh SE 0.8 mph1.3 kmh 29.79 in1008.8 mb 0.00 in0.0 mm 0.00 in0.0 mm 0.06 in1.5 mm
12:11 PM 47.5°F8.6°C 49.6°F9.8°C 89% Calm Calm -- 29.79 in1008.8 mb 0.00 in0.0 mm 0.00 in0.0 mm 0.06 in1.5 mm
12:14 PM 47.4°F8.6°C 49.2°F9.6°C 88% 1.2 mph SE1.9 kmh SE 1.2 mph1.9 kmh 29.79 in1008.8 mb 0.00 in0.0 mm 0.00 in0.0 mm 0.06 in1.5 mm
12:17 PM 47.5°F8.6°C 49.6°F9.8°C 89% Calm Calm -- 29.79 in1008.8 mb 0.00 in0.0 mm 0.00 in0.0 mm 0.06 in1.5 mm
12:20 PM 47.5°F8.6°C 49.7°F9.8°C 89% 0.8 mph SE1.3 kmh SE 0.8 mph1.3 kmh 29.78 in1008.5 mb 0.00 in0.0 mm 0.00 in0.0 mm 0.06 in1.5 mm
12:23 PM 47.9°F8.8°C 49.7°F9.8°C 89% 2.8 mph SE4.5 kmh SE 2.8 mph4.5 kmh 29.77 in1008.1 mb 0.00 in0.0 mm 0.00 in0.0 mm 0.06 in1.5 mm
12:26 PM 48.1°F8.9°C 49.6°F9.8°C 89% 0.4 mph SE0.6 kmh SE 0.4 mph0.6 kmh 29.78 in1008.5 mb 0.00 in0.0 mm 0.00 in0.0 mm 0.06 in1.5 mm
12:29 PM 48.2°F9.0°C 50.0°F10.0°C 90% 0.4 mph SE0.6 kmh SE 0.4 mph0.6 kmh 29.77 in1008.1 mb 0.00 in0.0 mm 0.00 in0.0 mm 0.06 in1.5 mm
12:32 PM 48.4°F9.1°C 50.1°F10.1°C 89% Calm Calm -- 29.78 in1008.5 mb 0.00 in0.0 mm 0.00 in0.0 mm 0.06 in1.5 mm
12:35 PM 48.5°F9.2°C 50.0°F10.0°C 89% Calm Calm -- 29.78 in1008.5 mb 0.00 in0.0 mm 0.00 in0.0 mm 0.06 in1.5 mm
12:38 PM 48.7°F9.3°C 50.2°F10.1°C 89% Calm Calm -- 29.78 in1008.5 mb 0.00 in0.0 mm 0.00 in0.0 mm 0.06 in1.5 mm
12:41 PM 48.5°F9.2°C 49.9°F9.9°C 88% Calm Calm -- 29.78 in1008.5 mb 0.00 in0.0 mm 0.00 in0.0 mm 0.06 in1.5 mm
12:44 PM 48.7°F9.3°C 50.3°F10.2°C 89% Calm Calm -- 29.77 in1008.1 mb 0.00 in0.0 mm 0.00 in0.0 mm 0.06 in1.5 mm
12:47 PM 48.8°F9.3°C 50.2°F10.1°C 88% Calm Calm -- 29.78 in1008.5 mb 0.00 in0.0 mm 0.00 in0.0 mm 0.06 in1.5 mm
12:50 PM 48.8°F9.3°C 50.2°F10.1°C 88% Calm Calm -- 29.77 in1008.1 mb 0.00 in0.0 mm 0.00 in0.0 mm 0.06 in1.5 mm
12:53 PM 48.5°F9.2°C 50.0°F10.0°C 88% Calm Calm -- 29.77 in1008.1 mb 0.00 in0.0 mm 0.00 in0.0 mm 0.06 in1.5 mm
12:56 PM 49.0°F9.4°C 50.5°F10.3°C 89% 0.4 mph ESE0.6 kmh ESE 0.4 mph0.6 kmh 29.77 in1008.1 mb 0.00 in0.0 mm 0.00 in0.0 mm 0.06 in1.5 mm
12:59 PM 49.3°F9.6°C 50.5°F10.3°C 89% Calm Calm -- 29.77 in1008.1 mb 0.00 in0.0 mm 0.00 in0.0 mm 0.06 in1.5 mm
01:02 PM 50.2°F10.1°C 50.5°F10.3°C 89% Calm Calm -- 29.77 in1008.1 mb 0.00 in0.0 mm 0.00 in0.0 mm 0.06 in1.5 mm
01:05 PM 50.0°F10.0°C 50.8°F10.4°C 89% Calm Calm -- 29.77 in1008.1 mb 0.00 in0.0 mm 0.00 in0.0 mm 0.06 in1.5 mm
01:08 PM 50.2°F10.1°C 51.0°F10.6°C 89% Calm Calm -- 29.76 in1007.8 mb 0.00 in0.0 mm 0.00 in0.0 mm 0.06 in1.5 mm
01:11 PM 50.5°F10.3°C 51.0°F10.6°C 89% Calm Calm -- 29.77 in1008.1 mb 0.00 in0.0 mm 0.00 in0.0 mm 0.06 in1.5 mm
01:14 PM 50.2°F10.1°C 51.3°F10.7°C 89% 0.8 mph ESE1.3 kmh ESE 0.8 mph1.3 kmh 29.77 in1008.1 mb 0.00 in0.0 mm 0.00 in0.0 mm 0.06 in1.5 mm
01:17 PM 50.1°F10.1°C 51.2°F10.7°C 88% Calm Calm -- 29.77 in1008.1 mb 0.00 in0.0 mm 0.00 in0.0 mm 0.06 in1.5 mm
01:20 PM 49.9°F9.9°C 51.1°F10.6°C 87% 0.8 mph SE1.3 kmh SE 0.8 mph1.3 kmh 29.77 in1008.1 mb 0.00 in0.0 mm 0.00 in0.0 mm 0.06 in1.5 mm
01:23 PM 50.1°F10.1°C 51.2°F10.7°C 88% Calm Calm -- 29.77 in1008.1 mb 0.00 in0.0 mm 0.00 in0.0 mm 0.06 in1.5 mm
01:26 PM 49.8°F9.9°C 50.9°F10.5°C 87% Calm Calm -- 29.77 in1008.1 mb 0.00 in0.0 mm 0.00 in0.0 mm 0.06 in1.5 mm
01:29 PM 49.8°F9.9°C 50.9°F10.5°C 87% Calm Calm -- 29.76 in1007.8 mb 0.00 in0.0 mm 0.00 in0.0 mm 0.06 in1.5 mm
01:32 PM 49.9°F9.9°C 50.8°F10.4°C 87% Calm Calm -- 29.77 in1008.1 mb 0.00 in0.0 mm 0.00 in0.0 mm 0.06 in1.5 mm
01:35 PM 49.7°F9.8°C 50.8°F10.4°C 86% Calm Calm -- 29.77 in1008.1 mb 0.00 in0.0 mm 0.00 in0.0 mm 0.06 in1.5 mm
01:38 PM 49.7°F9.8°C 51.0°F10.6°C 87% Calm Calm -- 29.76 in1007.8 mb 0.00 in0.0 mm 0.00 in0.0 mm 0.06 in1.5 mm
01:41 PM 49.6°F9.8°C 51.1°F10.6°C 87% Calm Calm -- 29.77 in1008.1 mb 0.00 in0.0 mm 0.00 in0.0 mm 0.06 in1.5 mm
01:44 PM 49.4°F9.7°C 51.0°F10.6°C 87% Calm Calm -- 29.76 in1007.8 mb 0.00 in0.0 mm 0.00 in0.0 mm 0.06 in1.5 mm
01:47 PM 49.4°F9.7°C 51.1°F10.6°C 87% Calm Calm -- 29.76 in1007.8 mb 0.00 in0.0 mm 0.00 in0.0 mm 0.06 in1.5 mm
01:50 PM 49.4°F9.7°C 51.2°F10.7°C 88% 0.4 mph SSW0.6 kmh SSW 0.4 mph0.6 kmh 29.76 in1007.8 mb 0.00 in0.0 mm 0.00 in0.0 mm 0.06 in1.5 mm
01:53 PM 50.3°F10.2°C 51.3°F10.7°C 88% 4.0 mph NNW6.4 kmh NNW 4.1 mph6.6 kmh 29.76 in1007.8 mb 0.00 in0.0 mm 0.00 in0.0 mm 0.06 in1.5 mm
01:56 PM 50.3°F10.2°C 51.5°F10.8°C 88% 4.0 mph WSW6.4 kmh WSW 4.0 mph6.4 kmh 29.76 in1007.8 mb 0.00 in0.0 mm 0.00 in0.0 mm 0.06 in1.5 mm
01:59 PM 50.3°F10.2°C 51.5°F10.8°C 88% 2.0 mph SW3.2 kmh SW 2.0 mph3.2 kmh 29.76 in1007.8 mb 0.00 in0.0 mm 0.00 in0.0 mm 0.06 in1.5 mm
02:02 PM 50.1°F10.1°C 51.2°F10.7°C 87% 4.8 mph SSW7.7 kmh SSW 4.9 mph7.9 kmh 29.76 in1007.8 mb 0.00 in0.0 mm 0.00 in0.0 mm 0.06 in1.5 mm
02:05 PM 50.2°F10.1°C 51.6°F10.9°C 88% 5.7 mph W9.2 kmh W 5.7 mph9.2 kmh 29.76 in1007.8 mb 0.00 in0.0 mm 0.00 in0.0 mm 0.06 in1.5 mm
02:08 PM 50.5°F10.3°C 51.7°F10.9°C 88% 5.2 mph NNW8.4 kmh NNW 5.2 mph8.4 kmh 29.76 in1007.8 mb 0.00 in0.0 mm 0.00 in0.0 mm 0.06 in1.5 mm
02:11 PM 50.7°F10.4°C 51.7°F10.9°C 88% 4.0 mph WSW6.4 kmh WSW 4.1 mph6.6 kmh 29.76 in1007.8 mb 0.00 in0.0 mm 0.00 in0.0 mm 0.06 in1.5 mm
02:14 PM 50.8°F10.4°C 51.9°F11.1°C 88% 8.7 mph NNW14.0 kmh NNW 8.8 mph14.2 kmh 29.76 in1007.8 mb 0.00 in0.0 mm 0.00 in0.0 mm 0.08 in2.0 mm
02:17 PM 50.8°F10.4°C 51.8°F11.0°C 87% 5.6 mph W9.0 kmh W 5.7 mph9.2 kmh 29.77 in1008.1 mb 0.00 in0.0 mm 0.00 in0.0 mm 0.08 in2.0 mm
02:20 PM 50.6°F10.3°C 52.1°F11.2°C 87% 7.1 mph WNW11.4 kmh WNW 7.2 mph11.6 kmh 29.77 in1008.1 mb 0.00 in0.0 mm 0.00 in0.0 mm 0.08 in2.0 mm
02:23 PM 50.5°F10.3°C 51.8°F11.0°C 87% 7.0 mph SW11.3 kmh SW 7.1 mph11.4 kmh 29.77 in1008.1 mb 0.00 in0.0 mm 0.00 in0.0 mm 0.08 in2.0 mm
02:26 PM 50.7°F10.4°C 52.1°F11.2°C 87% 8.9 mph NNW14.3 kmh NNW 9.0 mph14.5 kmh 29.77 in1008.1 mb 0.00 in0.0 mm 0.00 in0.0 mm 0.08 in2.0 mm
02:29 PM 50.7°F10.4°C 52.0°F11.1°C 87% 8.5 mph NW13.7 kmh NW 8.6 mph13.8 kmh 29.76 in1007.8 mb 0.00 in0.0 mm 0.00 in0.0 mm 0.08 in2.0 mm
02:32 PM 50.8°F10.4°C 52.3°F11.3°C 88% 5.6 mph W9.0 kmh W 5.6 mph9.0 kmh 29.76 in1007.8 mb 0.00 in0.0 mm 0.00 in0.0 mm 0.08 in2.0 mm
02:35 PM 50.9°F10.5°C 52.1°F11.2°C 87% 8.7 mph W14.0 kmh W 8.8 mph14.2 kmh 29.77 in1008.1 mb 0.00 in0.0 mm 0.00 in0.0 mm 0.08 in2.0 mm
02:38 PM 50.8°F10.4°C 52.1°F11.2°C 87% Calm Calm -- 29.77 in1008.1 mb 0.00 in0.0 mm 0.00 in0.0 mm 0.08 in2.0 mm
02:41 PM 50.8°F10.4°C 52.1°F11.2°C 87% 4.7 mph W7.6 kmh W 4.8 mph7.7 kmh 29.77 in1008.1 mb 0.00 in0.0 mm 0.00 in0.0 mm 0.08 in2.0 mm
02:44 PM 50.9°F10.5°C 52.1°F11.2°C 87% 6.9 mph WNW11.1 kmh WNW 6.9 mph11.1 kmh 29.77 in1008.1 mb 0.00 in0.0 mm 0.00 in0.0 mm 0.08 in2.0 mm
02:47 PM 50.8°F10.4°C 52.0°F11.1°C 87% 5.3 mph NW8.5 kmh NW 5.3 mph8.5 kmh 29.77 in1008.1 mb 0.00 in0.0 mm 0.00 in0.0 mm 0.08 in2.0 mm
02:50 PM 50.6°F10.3°C 52.2°F11.2°C 87% 6.9 mph W11.1 kmh W 6.9 mph11.1 kmh 29.77 in1008.1 mb 0.00 in0.0 mm 0.00 in0.0 mm 0.08 in2.0 mm
02:53 PM 50.7°F10.4°C 52.1°F11.2°C 87% 4.0 mph W6.4 kmh W 4.1 mph6.6 kmh 29.77 in1008.1 mb 0.00 in0.0 mm 0.00 in0.0 mm 0.08 in2.0 mm
02:56 PM 50.7°F10.4°C 52.1°F11.2°C 87% 5.6 mph SW9.0 kmh SW 5.6 mph9.0 kmh 29.77 in1008.1 mb 0.00 in0.0 mm 0.00 in0.0 mm 0.08 in2.0 mm
02:59 PM 50.8°F10.4°C 52.1°F11.2°C 86% 2.8 mph SW4.5 kmh SW 2.9 mph4.7 kmh 29.77 in1008.1 mb 0.00 in0.0 mm 0.00 in0.0 mm 0.08 in2.0 mm
03:02 PM 50.7°F10.4°C 52.3°F11.3°C 87% 3.6 mph NW5.8 kmh NW 3.7 mph6.0 kmh 29.77 in1008.1 mb 0.00 in0.0 mm 0.00 in0.0 mm 0.08 in2.0 mm
03:05 PM 50.8°F10.4°C 52.3°F11.3°C 86% 4.0 mph WSW6.4 kmh WSW 4.1 mph6.6 kmh 29.77 in1008.1 mb 0.00 in0.0 mm 0.00 in0.0 mm 0.08 in2.0 mm
03:11 PM 50.8°F10.4°C 52.2°F11.2°C 86% 4.0 mph NNW6.4 kmh NNW 4.1 mph6.6 kmh 29.77 in1008.1 mb 0.00 in0.0 mm 0.00 in0.0 mm 0.08 in2.0 mm
03:14 PM 50.8°F10.4°C 52.3°F11.3°C 86% 5.3 mph W8.5 kmh W 5.3 mph8.5 kmh 29.77 in1008.1 mb 0.00 in0.0 mm 0.00 in0.0 mm 0.08 in2.0 mm
03:17 PM 50.8°F10.4°C 52.0°F11.1°C 86% 4.0 mph W6.4 kmh W 4.1 mph6.6 kmh 29.77 in1008.1 mb 0.00 in0.0 mm 0.00 in0.0 mm 0.08 in2.0 mm
03:20 PM 50.8°F10.4°C 52.3°F11.3°C 86% 4.4 mph W7.1 kmh W 4.4 mph7.1 kmh 29.77 in1008.1 mb 0.00 in0.0 mm 0.00 in0.0 mm 0.08 in2.0 mm
03:23 PM 50.7°F10.4°C 52.2°F11.2°C 86% 6.0 mph NNW9.7 kmh NNW 6.0 mph9.7 kmh 29.77 in1008.1 mb 0.00 in0.0 mm 0.00 in0.0 mm 0.08 in2.0 mm
03:26 PM 50.7°F10.4°C 52.0°F11.1°C 86% 2.4 mph NNW3.9 kmh NNW 2.4 mph3.9 kmh 29.77 in1008.1 mb 0.00 in0.0 mm 0.00 in0.0 mm 0.08 in2.0 mm
03:29 PM 50.7°F10.4°C 52.2°F11.2°C 86% 3.6 mph SW5.8 kmh SW 3.7 mph6.0 kmh 29.77 in1008.1 mb 0.00 in0.0 mm 0.00 in0.0 mm 0.08 in2.0 mm
03:32 PM 50.9°F10.5°C 51.9°F11.1°C 85% 4.8 mph NNW7.7 kmh NNW 4.8 mph7.7 kmh 29.77 in1008.1 mb 0.00 in0.0 mm 0.00 in0.0 mm 0.08 in2.0 mm
03:35 PM 50.8°F10.4°C 52.0°F11.1°C 85% 3.2 mph WSW5.1 kmh WSW 3.2 mph5.1 kmh 29.77 in1008.1 mb 0.00 in0.0 mm 0.00 in0.0 mm 0.08 in2.0 mm
03:38 PM 50.8°F10.4°C 52.2°F11.2°C 85% 3.6 mph W5.8 kmh W 3.6 mph5.8 kmh 29.77 in1008.1 mb 0.00 in0.0 mm 0.00 in0.0 mm 0.08 in2.0 mm
03:41 PM 50.7°F10.4°C 52.2°F11.2°C 85% 1.6 mph W2.6 kmh W 1.6 mph2.6 kmh 29.77 in1008.1 mb 0.00 in0.0 mm 0.00 in0.0 mm 0.08 in2.0 mm
03:44 PM 50.8°F10.4°C 52.1°F11.2°C 85% 2.4 mph NNW3.9 kmh NNW 2.4 mph3.9 kmh 29.78 in1008.5 mb 0.00 in0.0 mm 0.00 in0.0 mm 0.08 in2.0 mm
03:47 PM 50.7°F10.4°C 52.2°F11.2°C 85% 2.8 mph W4.5 kmh W 2.8 mph4.5 kmh 29.78 in1008.5 mb 0.00 in0.0 mm 0.00 in0.0 mm 0.08 in2.0 mm
03:50 PM 50.8°F10.4°C 52.3°F11.3°C 85% 1.6 mph SW2.6 kmh SW 1.6 mph2.6 kmh 29.77 in1008.1 mb 0.00 in0.0 mm 0.00 in0.0 mm 0.08 in2.0 mm
03:53 PM 50.7°F10.4°C 52.1°F11.2°C 85% 2.4 mph W3.9 kmh W 2.4 mph3.9 kmh 29.78 in1008.5 mb 0.00 in0.0 mm 0.00 in0.0 mm 0.08 in2.0 mm
03:56 PM 50.7°F10.4°C 51.9°F11.1°C 85% Calm Calm -- 29.78 in1008.5 mb 0.00 in0.0 mm 0.00 in0.0 mm 0.08 in2.0 mm
03:59 PM 50.7°F10.4°C 52.0°F11.1°C 85% 0.4 mph WSW0.6 kmh WSW 0.4 mph0.6 kmh 29.77 in1008.1 mb 0.00 in0.0 mm 0.00 in0.0 mm 0.08 in2.0 mm
04:02 PM 50.7°F10.4°C 51.8°F11.0°C 85% 4.8 mph W7.7 kmh W 4.8 mph7.7 kmh 29.78 in1008.5 mb 0.00 in0.0 mm 0.00 in0.0 mm 0.08 in2.0 mm
04:05 PM 51.0°F10.6°C 51.6°F10.9°C 84% 9.7 mph NNW15.6 kmh NNW 9.8 mph15.8 kmh 29.78 in1008.5 mb 0.00 in0.0 mm 0.00 in0.0 mm 0.08 in2.0 mm
04:08 PM 50.6°F10.3°C 52.1°F11.2°C 85% 4.0 mph NNW6.4 kmh NNW 4.1 mph6.6 kmh 29.79 in1008.8 mb 0.00 in0.0 mm 0.00 in0.0 mm 0.08 in2.0 mm
04:11 PM 50.8°F10.4°C 52.0°F11.1°C 85% 2.8 mph SSW4.5 kmh SSW 2.9 mph4.7 kmh 29.78 in1008.5 mb 0.00 in0.0 mm 0.00 in0.0 mm 0.08 in2.0 mm
04:14 PM 50.8°F10.4°C 52.1°F11.2°C 85% 2.8 mph WNW4.5 kmh WNW 2.8 mph4.5 kmh 29.79 in1008.8 mb 0.00 in0.0 mm 0.00 in0.0 mm 0.08 in2.0 mm
04:17 PM 50.7°F10.4°C 51.9°F11.1°C 85% 1.9 mph WNW3.1 kmh WNW 2.0 mph3.2 kmh 29.79 in1008.8 mb 0.00 in0.0 mm 0.00 in0.0 mm 0.08 in2.0 mm
04:20 PM 50.8°F10.4°C 51.9°F11.1°C 84% 3.2 mph W5.1 kmh W 3.2 mph5.1 kmh 29.79 in1008.8 mb 0.00 in0.0 mm 0.00 in0.0 mm 0.08 in2.0 mm
04:21 PM 50.8°F10.4°C 51.7°F10.9°C 84% 2.8 mph W4.5 kmh W 2.8 mph4.5 kmh 29.78 in1008.5 mb 0.00 in0.0 mm 0.00 in0.0 mm 0.08 in2.0 mm
04:24 PM 50.9°F10.5°C 52.1°F11.2°C 85% 6.4 mph W10.3 kmh W 6.4 mph10.3 kmh 29.78 in1008.5 mb 0.00 in0.0 mm 0.00 in0.0 mm 0.08 in2.0 mm
04:27 PM 50.9°F10.5°C 51.9°F11.1°C 84% 2.8 mph SW4.5 kmh SW 2.9 mph4.7 kmh 29.78 in1008.5 mb 0.00 in0.0 mm 0.00 in0.0 mm 0.08 in2.0 mm
04:30 PM 50.9°F10.5°C 52.1°F11.2°C 84% 2.4 mph W3.9 kmh W 2.4 mph3.9 kmh 29.79 in1008.8 mb 0.00 in0.0 mm 0.00 in0.0 mm 0.08 in2.0 mm
04:33 PM 50.8°F10.4°C 51.9°F11.1°C 84% 2.8 mph NW4.5 kmh NW 2.8 mph4.5 kmh 29.78 in1008.5 mb 0.00 in0.0 mm 0.00 in0.0 mm 0.08 in2.0 mm
04:36 PM 50.7°F10.4°C 52.2°F11.2°C 84% 4.9 mph NNW7.9 kmh NNW 4.9 mph7.9 kmh 29.79 in1008.8 mb 0.00 in0.0 mm 0.00 in0.0 mm 0.08 in2.0 mm
04:39 PM 50.8°F10.4°C 52.1°F11.2°C 84% 2.8 mph W4.5 kmh W 2.8 mph4.5 kmh 29.79 in1008.8 mb 0.00 in0.0 mm 0.00 in0.0 mm 0.08 in2.0 mm
04:42 PM 50.8°F10.4°C 52.0°F11.1°C 84% 5.3 mph WNW8.5 kmh WNW 5.3 mph8.5 kmh 29.78 in1008.5 mb 0.00 in0.0 mm 0.00 in0.0 mm 0.08 in2.0 mm
04:45 PM 51.0°F10.6°C 52.0°F11.1°C 84% 3.2 mph NNW5.1 kmh NNW 3.2 mph5.1 kmh 29.79 in1008.8 mb 0.00 in0.0 mm 0.00 in0.0 mm 0.08 in2.0 mm
04:51 PM 50.9°F10.5°C 52.0°F11.1°C 84% 1.6 mph NNW2.6 kmh NNW 1.6 mph2.6 kmh 29.79 in1008.8 mb 0.00 in0.0 mm 0.00 in0.0 mm 0.08 in2.0 mm
04:57 PM 51.1°F10.6°C 51.6°F10.9°C 84% 6.5 mph NNW10.5 kmh NNW 6.5 mph10.5 kmh 29.78 in1008.5 mb 0.00 in0.0 mm 0.00 in0.0 mm 0.08 in2.0 mm
05:00 PM 51.0°F10.6°C 52.0°F11.1°C 84% 1.6 mph NNW2.6 kmh NNW 1.6 mph2.6 kmh 29.79 in1008.8 mb 0.00 in0.0 mm 0.00 in0.0 mm 0.08 in2.0 mm
05:03 PM 50.9°F10.5°C 51.8°F11.0°C 84% 2.8 mph NW4.5 kmh NW 2.8 mph4.5 kmh 29.79 in1008.8 mb 0.00 in0.0 mm 0.00 in0.0 mm 0.08 in2.0 mm
05:06 PM 51.0°F10.6°C 51.7°F10.9°C 83% 2.8 mph NNW4.5 kmh NNW 2.8 mph4.5 kmh 29.79 in1008.8 mb 0.00 in0.0 mm 0.00 in0.0 mm 0.08 in2.0 mm
05:09 PM 50.9°F10.5°C 51.7°F10.9°C 83% Calm Calm -- 29.78 in1008.5 mb 0.00 in0.0 mm 0.00 in0.0 mm 0.08 in2.0 mm
05:12 PM 50.8°F10.4°C 51.9°F11.1°C 84% Calm Calm -- 29.79 in1008.8 mb 0.00 in0.0 mm 0.00 in0.0 mm 0.08 in2.0 mm
05:15 PM 50.8°F10.4°C 52.0°F11.1°C 84% 5.3 mph W8.5 kmh W 5.3 mph8.5 kmh 29.79 in1008.8 mb 0.00 in0.0 mm 0.00 in0.0 mm 0.08 in2.0 mm
05:18 PM 50.8°F10.4°C 51.9°F11.1°C 84% 4.0 mph WSW6.4 kmh WSW 4.0 mph6.4 kmh 29.79 in1008.8 mb 0.00 in0.0 mm 0.00 in0.0 mm 0.08 in2.0 mm
05:21 PM 50.8°F10.4°C 51.7°F10.9°C 83% Calm Calm -- 29.79 in1008.8 mb 0.00 in0.0 mm 0.00 in0.0 mm 0.08 in2.0 mm
05:24 PM 50.8°F10.4°C 52.0°F11.1°C 84% 2.8 mph W4.5 kmh W 2.8 mph4.5 kmh 29.79 in1008.8 mb 0.00 in0.0 mm 0.00 in0.0 mm 0.08 in2.0 mm
05:27 PM 51.0°F10.6°C 51.8°F11.0°C 84% 6.1 mph NNW9.8 kmh NNW 6.1 mph9.8 kmh 29.79 in1008.8 mb 0.00 in0.0 mm 0.00 in0.0 mm 0.08 in2.0 mm
05:30 PM 50.9°F10.5°C 52.1°F11.2°C 84% 7.7 mph W12.4 kmh W 7.7 mph12.4 kmh 29.79 in1008.8 mb 0.00 in0.0 mm 0.00 in0.0 mm 0.08 in2.0 mm
05:33 PM 51.0°F10.6°C 52.0°F11.1°C 84% 4.0 mph NNW6.4 kmh NNW 4.0 mph6.4 kmh 29.79 in1008.8 mb 0.00 in0.0 mm 0.00 in0.0 mm 0.08 in2.0 mm
05:36 PM 50.9°F10.5°C 51.8°F11.0°C 83% 4.4 mph WNW7.1 kmh WNW 4.4 mph7.1 kmh 29.79 in1008.8 mb 0.00 in0.0 mm 0.00 in0.0 mm 0.08 in2.0 mm
05:39 PM 50.9°F10.5°C 51.8°F11.0°C 83% 1.6 mph W2.6 kmh W 1.6 mph2.6 kmh 29.79 in1008.8 mb 0.00 in0.0 mm 0.00 in0.0 mm 0.08 in2.0 mm
05:42 PM 50.8°F10.4°C 52.0°F11.1°C 84% 1.2 mph SW1.9 kmh SW 1.2 mph1.9 kmh 29.79 in1008.8 mb 0.00 in0.0 mm 0.00 in0.0 mm 0.08 in2.0 mm
05:45 PM 51.2°F10.7°C 52.0°F11.1°C 84% 10.1 mph WSW16.3 kmh WSW 10.2 mph16.4 kmh 29.79 in1008.8 mb 0.00 in0.0 mm 0.00 in0.0 mm 0.08 in2.0 mm
05:48 PM 51.2°F10.7°C 52.0°F11.1°C 84% 4.1 mph W6.6 kmh W 4.1 mph6.6 kmh 29.79 in1008.8 mb 0.00 in0.0 mm 0.00 in0.0 mm 0.08 in2.0 mm
05:51 PM 51.0°F10.6°C 52.2°F11.2°C 84% 2.8 mph WNW4.5 kmh WNW 2.9 mph4.7 kmh 29.79 in1008.8 mb 0.00 in0.0 mm 0.00 in0.0 mm 0.08 in2.0 mm
05:54 PM 50.8°F10.4°C 52.2°F11.2°C 84% 2.8 mph WNW4.5 kmh WNW 2.9 mph4.7 kmh 29.79 in1008.8 mb 0.00 in0.0 mm 0.00 in0.0 mm 0.08 in2.0 mm
05:57 PM 50.7°F10.4°C 52.1°F11.2°C 84% 4.4 mph NNW7.1 kmh NNW 4.5 mph7.2 kmh 29.79 in1008.8 mb 0.00 in0.0 mm 0.00 in0.0 mm 0.08 in2.0 mm
06:00 PM 50.7°F10.4°C 51.9°F11.1°C 84% 3.2 mph W5.1 kmh W 3.2 mph5.1 kmh 29.79 in1008.8 mb 0.00 in0.0 mm 0.00 in0.0 mm 0.08 in2.0 mm
06:03 PM 51.0°F10.6°C 52.1°F11.2°C 84% 4.4 mph NW7.1 kmh NW 4.4 mph7.1 kmh 29.79 in1008.8 mb 0.00 in0.0 mm 0.00 in0.0 mm 0.08 in2.0 mm
06:06 PM 50.9°F10.5°C 52.1°F11.2°C 84% 3.6 mph NNW5.8 kmh NNW 3.7 mph6.0 kmh 29.78 in1008.5 mb 0.00 in0.0 mm 0.00 in0.0 mm 0.08 in2.0 mm
06:09 PM 51.1°F10.6°C 52.1°F11.2°C 84% 4.4 mph W7.1 kmh W 4.5 mph7.2 kmh 29.79 in1008.8 mb 0.00 in0.0 mm 0.00 in0.0 mm 0.08 in2.0 mm
06:12 PM 50.9°F10.5°C 51.8°F11.0°C 84% 3.6 mph W5.8 kmh W 3.7 mph6.0 kmh 29.79 in1008.8 mb 0.00 in0.0 mm 0.00 in0.0 mm 0.08 in2.0 mm
06:15 PM 50.8°F10.4°C 52.1°F11.2°C 84% 1.6 mph NNW2.6 kmh NNW 1.6 mph2.6 kmh 29.79 in1008.8 mb 0.00 in0.0 mm 0.00 in0.0 mm 0.08 in2.0 mm
06:18 PM 50.7°F10.4°C 52.1°F11.2°C 84% 0.8 mph WNW1.3 kmh WNW 0.8 mph1.3 kmh 29.79 in1008.8 mb 0.00 in0.0 mm 0.00 in0.0 mm 0.08 in2.0 mm
06:21 PM 51.0°F10.6°C 51.8°F11.0°C 84% 5.5 mph NW8.9 kmh NW 5.6 mph9.0 kmh 29.79 in1008.8 mb 0.00 in0.0 mm 0.00 in0.0 mm 0.08 in2.0 mm
06:24 PM 50.8°F10.4°C 52.2°F11.2°C 84% 2.0 mph W3.2 kmh W 2.0 mph3.2 kmh 29.79 in1008.8 mb 0.00 in0.0 mm 0.00 in0.0 mm 0.08 in2.0 mm
06:27 PM 50.8°F10.4°C 52.1°F11.2°C 84% 2.8 mph SW4.5 kmh SW 2.8 mph4.5 kmh 29.79 in1008.8 mb 0.00 in0.0 mm 0.00 in0.0 mm 0.08 in2.0 mm
06:30 PM 50.7°F10.4°C 52.1°F11.2°C 84% Calm Calm -- 29.79 in1008.8 mb 0.00 in0.0 mm 0.00 in0.0 mm 0.08 in2.0 mm
06:33 PM 50.7°F10.4°C 52.0°F11.1°C 84% 3.6 mph W5.8 kmh W 3.7 mph6.0 kmh 29.79 in1008.8 mb 0.00 in0.0 mm 0.00 in0.0 mm 0.08 in2.0 mm
06:36 PM 50.6°F10.3°C 52.2°F11.2°C 84% 4.5 mph SW7.2 kmh SW 4.5 mph7.2 kmh 29.79 in1008.8 mb 0.00 in0.0 mm 0.00 in0.0 mm 0.08 in2.0 mm
06:39 PM 50.6°F10.3°C 52.1°F11.2°C 84% 2.8 mph W4.5 kmh W 2.8 mph4.5 kmh 29.79 in1008.8 mb 0.00 in0.0 mm 0.00 in0.0 mm 0.08 in2.0 mm
06:42 PM 50.7°F10.4°C 52.0°F11.1°C 84% 6.1 mph W9.8 kmh W 6.1 mph9.8 kmh 29.79 in1008.8 mb 0.00 in0.0 mm 0.00 in0.0 mm 0.08 in2.0 mm
06:45 PM 50.8°F10.4°C 52.0°F11.1°C 84% 6.0 mph WNW9.7 kmh WNW 6.0 mph9.7 kmh 29.79 in1008.8 mb 0.00 in0.0 mm 0.00 in0.0 mm 0.08 in2.0 mm
06:48 PM 50.7°F10.4°C 52.2°F11.2°C 84% 3.2 mph WSW5.1 kmh WSW 3.3 mph5.3 kmh 29.80 in1009.1 mb 0.00 in0.0 mm 0.00 in0.0 mm 0.08 in2.0 mm
06:51 PM 50.5°F10.3°C 51.9°F11.1°C 84% 3.2 mph WNW5.1 kmh WNW 3.2 mph5.1 kmh 29.80 in1009.1 mb 0.00 in0.0 mm 0.00 in0.0 mm 0.08 in2.0 mm
06:54 PM 50.5°F10.3°C 51.8°F11.0°C 83% 0.4 mph NNW0.6 kmh NNW 0.4 mph0.6 kmh 29.80 in1009.1 mb 0.00 in0.0 mm 0.00 in0.0 mm 0.08 in2.0 mm
06:57 PM 50.7°F10.4°C 52.2°F11.2°C 84% 4.4 mph W7.1 kmh W 4.4 mph7.1 kmh 29.79 in1008.8 mb 0.00 in0.0 mm 0.00 in0.0 mm 0.08 in2.0 mm
07:00 PM 50.5°F10.3°C 51.9°F11.1°C 84% 4.5 mph NNW7.2 kmh NNW 4.5 mph7.2 kmh 29.80 in1009.1 mb 0.00 in0.0 mm 0.00 in0.0 mm 0.08 in2.0 mm
07:06 PM 50.6°F10.3°C 51.7°F10.9°C 83% 5.7 mph NW9.2 kmh NW 5.7 mph9.2 kmh 29.80 in1009.1 mb 0.00 in0.0 mm 0.00 in0.0 mm 0.08 in2.0 mm
07:09 PM 50.8°F10.4°C 52.0°F11.1°C 84% 4.8 mph W7.7 kmh W 4.9 mph7.9 kmh 29.79 in1008.8 mb 0.00 in0.0 mm 0.00 in0.0 mm 0.08 in2.0 mm
07:12 PM 50.6°F10.3°C 52.1°F11.2°C 84% 5.3 mph W8.5 kmh W 5.3 mph8.5 kmh 29.80 in1009.1 mb 0.00 in0.0 mm 0.00 in0.0 mm 0.08 in2.0 mm
07:15 PM 50.6°F10.3°C 52.0°F11.1°C 84% 4.0 mph WSW6.4 kmh WSW 4.1 mph6.6 kmh 29.80 in1009.1 mb 0.00 in0.0 mm 0.00 in0.0 mm 0.08 in2.0 mm
07:18 PM 50.5°F10.3°C 51.9°F11.1°C 84% 4.0 mph W6.4 kmh W 4.1 mph6.6 kmh 29.80 in1009.1 mb 0.00 in0.0 mm 0.00 in0.0 mm 0.08 in2.0 mm
07:21 PM 50.6°F10.3°C 51.6°F10.9°C 83% 2.8 mph SW4.5 kmh SW 2.8 mph4.5 kmh 29.80 in1009.1 mb 0.00 in0.0 mm 0.00 in0.0 mm 0.08 in2.0 mm
07:24 PM 50.6°F10.3°C 52.0°F11.1°C 84% 4.4 mph WSW7.1 kmh WSW 4.4 mph7.1 kmh 29.80 in1009.1 mb 0.00 in0.0 mm 0.00 in0.0 mm 0.08 in2.0 mm
07:27 PM 50.6°F10.3°C 51.9°F11.1°C 85% 3.2 mph NNW5.1 kmh NNW 3.3 mph5.3 kmh 29.80 in1009.1 mb 0.00 in0.0 mm 0.00 in0.0 mm 0.08 in2.0 mm
07:30 PM 50.7°F10.4°C 51.8°F11.0°C 84% 1.6 mph SW2.6 kmh SW 1.6 mph2.6 kmh 29.80 in1009.1 mb 0.00 in0.0 mm 0.00 in0.0 mm 0.08 in2.0 mm
07:39 PM 50.3°F10.2°C 52.0°F11.1°C 84% 2.0 mph SW3.2 kmh SW 2.0 mph3.2 kmh 29.80 in1009.1 mb 0.00 in0.0 mm 0.00 in0.0 mm 0.08 in2.0 mm
07:42 PM 50.5°F10.3°C 51.9°F11.1°C 84% 3.6 mph W5.8 kmh W 3.7 mph6.0 kmh 29.80 in1009.1 mb 0.00 in0.0 mm 0.00 in0.0 mm 0.08 in2.0 mm
07:45 PM 50.5°F10.3°C 52.1°F11.2°C 84% 2.0 mph WSW3.2 kmh WSW 2.0 mph3.2 kmh 29.80 in1009.1 mb 0.00 in0.0 mm 0.00 in0.0 mm 0.08 in2.0 mm
07:54 PM 50.5°F10.3°C 51.9°F11.1°C 84% 1.6 mph W2.6 kmh W 1.6 mph2.6 kmh 29.80 in1009.1 mb 0.00 in0.0 mm 0.00 in0.0 mm 0.08 in2.0 mm
07:57 PM 50.2°F10.1°C 51.9°F11.1°C 84% 3.2 mph SW5.1 kmh SW 3.2 mph5.1 kmh 29.80 in1009.1 mb 0.00 in0.0 mm 0.00 in0.0 mm 0.08 in2.0 mm
08:00 PM 50.3°F10.2°C 51.8°F11.0°C 84% 6.4 mph WSW10.3 kmh WSW 6.5 mph10.5 kmh 29.80 in1009.1 mb 0.00 in0.0 mm 0.00 in0.0 mm 0.08 in2.0 mm
08:03 PM 50.3°F10.2°C 52.0°F11.1°C 85% 4.0 mph NNW6.4 kmh NNW 4.1 mph6.6 kmh 29.80 in1009.1 mb 0.00 in0.0 mm 0.00 in0.0 mm 0.08 in2.0 mm
08:06 PM 50.3°F10.2°C 52.0°F11.1°C 85% 4.4 mph SW7.1 kmh SW 4.5 mph7.2 kmh 29.79 in1008.8 mb 0.00 in0.0 mm 0.00 in0.0 mm 0.08 in2.0 mm
08:09 PM 50.3°F10.2°C 51.8°F11.0°C 84% 4.0 mph WSW6.4 kmh WSW 4.1 mph6.6 kmh 29.80 in1009.1 mb 0.00 in0.0 mm 0.00 in0.0 mm 0.08 in2.0 mm
08:12 PM 50.2°F10.1°C 51.9°F11.1°C 84% 1.2 mph W1.9 kmh W 1.2 mph1.9 kmh 29.80 in1009.1 mb 0.00 in0.0 mm 0.00 in0.0 mm 0.08 in2.0 mm
08:15 PM 50.0°F10.0°C 51.8°F11.0°C 84% 2.8 mph WNW4.5 kmh WNW 2.9 mph4.7 kmh 29.80 in1009.1 mb 0.00 in0.0 mm 0.00 in0.0 mm 0.08 in2.0 mm
08:18 PM 49.9°F9.9°C 51.8°F11.0°C 84% 3.2 mph WNW5.1 kmh WNW 3.3 mph5.3 kmh 29.80 in1009.1 mb 0.00 in0.0 mm 0.00 in0.0 mm 0.08 in2.0 mm
08:21 PM 49.8°F9.9°C 51.7°F10.9°C 84% 2.0 mph NNW3.2 kmh NNW 2.0 mph3.2 kmh 29.80 in1009.1 mb 0.00 in0.0 mm 0.00 in0.0 mm 0.08 in2.0 mm
08:24 PM 49.7°F9.8°C 51.6°F10.9°C 84% 2.0 mph NNW3.2 kmh NNW 2.0 mph3.2 kmh 29.80 in1009.1 mb 0.00 in0.0 mm 0.00 in0.0 mm 0.08 in2.0 mm
08:27 PM 49.7°F9.8°C 51.0°F10.6°C 83% 3.6 mph NNW5.8 kmh NNW 3.7 mph6.0 kmh 29.80 in1009.1 mb 0.00 in0.0 mm 0.00 in0.0 mm 0.08 in2.0 mm
08:30 PM 49.4°F9.7°C 51.2°F10.7°C 83% 4.9 mph 7.9 kmh 4.9 mph7.9 kmh 29.80 in1009.1 mb 0.00 in0.0 mm 0.00 in0.0 mm 0.08 in2.0 mm
08:33 PM 49.1°F9.5°C 51.1°F10.6°C 84% 4.9 mph 7.9 kmh 4.9 mph7.9 kmh 29.79 in1008.8 mb 0.00 in0.0 mm 0.00 in0.0 mm 0.08 in2.0 mm
08:36 PM 48.8°F9.3°C 51.2°F10.7°C 84% 4.4 mph 7.1 kmh 4.5 mph7.2 kmh 29.80 in1009.1 mb 0.00 in0.0 mm 0.00 in0.0 mm 0.08 in2.0 mm
08:39 PM 48.5°F9.2°C 51.3°F10.7°C 85% 4.0 mph NE6.4 kmh NE 4.0 mph6.4 kmh 29.79 in1008.8 mb 0.00 in0.0 mm 0.00 in0.0 mm 0.08 in2.0 mm
08:40 PM 48.4°F9.1°C 51.3°F10.7°C 85% 2.4 mph NE3.9 kmh NE 2.4 mph3.9 kmh 29.80 in1009.1 mb 0.00 in0.0 mm 0.00 in0.0 mm 0.08 in2.0 mm
08:41 PM 48.4°F9.1°C 51.1°F10.6°C 85% 2.8 mph NNE4.5 kmh NNE 2.8 mph4.5 kmh 29.79 in1008.8 mb 0.00 in0.0 mm 0.00 in0.0 mm 0.08 in2.0 mm
08:43 PM 48.3°F9.1°C 51.4°F10.8°C 85% Calm Calm -- 29.79 in1008.8 mb 0.00 in0.0 mm 0.00 in0.0 mm 0.08 in2.0 mm
08:44 PM 48.3°F9.1°C 51.3°F10.7°C 85% Calm Calm -- 29.79 in1008.8 mb 0.00 in0.0 mm 0.00 in0.0 mm 0.08 in2.0 mm
08:47 PM 48.3°F9.1°C 51.3°F10.7°C 85% 3.2 mph NNW5.1 kmh NNW 3.3 mph5.3 kmh 29.80 in1009.1 mb 0.00 in0.0 mm 0.00 in0.0 mm 0.08 in2.0 mm
08:50 PM 48.3°F9.1°C 51.1°F10.6°C 85% 0.8 mph NE1.3 kmh NE 0.8 mph1.3 kmh 29.80 in1009.1 mb 0.00 in0.0 mm 0.00 in0.0 mm 0.10 in2.5 mm
08:53 PM 48.3°F9.1°C 51.2°F10.7°C 85% 3.2 mph NNW5.1 kmh NNW 3.2 mph5.1 kmh 29.80 in1009.1 mb 0.00 in0.0 mm 0.00 in0.0 mm 0.10 in2.5 mm
08:56 PM 48.1°F8.9°C 51.4°F10.8°C 86% Calm Calm -- 29.80 in1009.1 mb 0.00 in0.0 mm 0.00 in0.0 mm 0.10 in2.5 mm
08:59 PM 48.0°F8.9°C 51.3°F10.7°C 85% 2.4 mph NW3.9 kmh NW 2.4 mph3.9 kmh 29.81 in1009.5 mb 0.00 in0.0 mm 0.00 in0.0 mm 0.10 in2.5 mm
09:02 PM 47.8°F8.8°C 51.2°F10.7°C 86% 0.4 mph WSW0.6 kmh WSW 0.4 mph0.6 kmh 29.80 in1009.1 mb 0.00 in0.0 mm 0.00 in0.0 mm 0.12 in3.0 mm
09:05 PM 47.8°F8.8°C 51.2°F10.7°C 86% Calm Calm -- 29.80 in1009.1 mb 0.00 in0.0 mm 0.00 in0.0 mm 0.12 in3.0 mm
09:08 PM 47.6°F8.7°C 51.3°F10.7°C 86% Calm Calm -- 29.80 in1009.1 mb 0.00 in0.0 mm 0.00 in0.0 mm 0.14 in3.6 mm
09:11 PM 47.5°F8.6°C 51.1°F10.6°C 86% Calm Calm -- 29.80 in1009.1 mb 0.00 in0.0 mm 0.00 in0.0 mm 0.14 in3.6 mm
09:14 PM 47.4°F8.6°C 51.2°F10.7°C 86% Calm Calm -- 29.80 in1009.1 mb 0.00 in0.0 mm 0.00 in0.0 mm 0.14 in3.6 mm
09:17 PM 47.3°F8.5°C 50.8°F10.4°C 86% 0.4 mph SW0.6 kmh SW 0.4 mph0.6 kmh 29.80 in1009.1 mb 0.00 in0.0 mm 0.00 in0.0 mm 0.14 in3.6 mm
09:20 PM 47.3°F8.5°C 50.9°F10.5°C 86% Calm Calm -- 29.80 in1009.1 mb 0.00 in0.0 mm 0.00 in0.0 mm 0.14 in3.6 mm
09:23 PM 47.3°F8.5°C 51.1°F10.6°C 86% Calm Calm -- 29.80 in1009.1 mb 0.00 in0.0 mm 0.00 in0.0 mm 0.16 in4.1 mm
09:26 PM 47.1°F8.4°C 51.0°F10.6°C 87% Calm Calm -- 29.80 in1009.1 mb 0.00 in0.0 mm 0.00 in0.0 mm 0.16 in4.1 mm
09:29 PM 47.1°F8.4°C 51.0°F10.6°C 86% Calm Calm -- 29.80 in1009.1 mb 0.00 in0.0 mm 0.00 in0.0 mm 0.16 in4.1 mm
09:32 PM 47.1°F8.4°C 50.9°F10.5°C 87% Calm Calm -- 29.80 in1009.1 mb 0.00 in0.0 mm 0.00 in0.0 mm 0.16 in4.1 mm
09:35 PM 47.1°F8.4°C 50.6°F10.3°C 86% Calm Calm -- 29.80 in1009.1 mb 0.00 in0.0 mm 0.00 in0.0 mm 0.18 in4.6 mm
09:38 PM 47.0°F8.3°C 51.1°F10.6°C 87% Calm Calm -- 29.80 in1009.1 mb 0.00 in0.0 mm 0.00 in0.0 mm 0.18 in4.6 mm
09:41 PM 46.9°F8.3°C 50.8°F10.4°C 86% Calm Calm -- 29.80 in1009.1 mb 0.00 in0.0 mm 0.00 in0.0 mm 0.20 in5.1 mm
09:47 PM 46.9°F8.3°C 50.8°F10.4°C 87% Calm Calm -- 29.80 in1009.1 mb 0.00 in0.0 mm 0.00 in0.0 mm 0.20 in5.1 mm
09:50 PM 46.9°F8.3°C 50.9°F10.5°C 87% Calm Calm -- 29.80 in1009.1 mb 0.00 in0.0 mm 0.00 in0.0 mm 0.20 in5.1 mm
09:53 PM 46.7°F8.2°C 50.2°F10.1°C 86% Calm Calm -- 29.80 in1009.1 mb 0.00 in0.0 mm 0.00 in0.0 mm 0.22 in5.6 mm
09:56 PM 46.9°F8.3°C 50.8°F10.4°C 87% Calm Calm -- 29.81 in1009.5 mb 0.00 in0.0 mm 0.00 in0.0 mm 0.22 in5.6 mm
09:59 PM 46.7°F8.2°C 50.8°F10.4°C 87% 2.4 mph 3.9 kmh 2.4 mph3.9 kmh 29.81 in1009.5 mb 0.00 in0.0 mm 0.00 in0.0 mm 0.22 in5.6 mm
10:02 PM 46.7°F8.2°C 50.9°F10.5°C 88% 1.2 mph 1.9 kmh 1.2 mph1.9 kmh 29.81 in1009.5 mb 0.00 in0.0 mm 0.00 in0.0 mm 0.24 in6.1 mm
10:05 PM 46.6°F8.1°C 50.6°F10.3°C 87% 0.8 mph ESE1.3 kmh ESE 0.8 mph1.3 kmh 29.80 in1009.1 mb 0.00 in0.0 mm 0.00 in0.0 mm 0.24 in6.1 mm
10:08 PM 46.6°F8.1°C 50.6°F10.3°C 88% Calm Calm -- 29.81 in1009.5 mb 0.00 in0.0 mm 0.00 in0.0 mm 0.24 in6.1 mm
10:11 PM 46.5°F8.1°C 50.9°F10.5°C 88% Calm Calm -- 29.81 in1009.5 mb 0.00 in0.0 mm 0.00 in0.0 mm 0.26 in6.6 mm
10:14 PM 46.5°F8.1°C 51.0°F10.6°C 88% 0.4 mph SW0.6 kmh SW 0.4 mph0.6 kmh 29.81 in1009.5 mb 0.00 in0.0 mm 0.00 in0.0 mm 0.26 in6.6 mm
10:17 PM 46.5°F8.1°C 50.3°F10.2°C 87% Calm Calm -- 29.81 in1009.5 mb 0.00 in0.0 mm 0.00 in0.0 mm 0.26 in6.6 mm
10:20 PM 46.5°F8.1°C 50.7°F10.4°C 88% 0.4 mph WSW0.6 kmh WSW 0.4 mph0.6 kmh 29.81 in1009.5 mb 0.00 in0.0 mm 0.00 in0.0 mm 0.28 in7.1 mm
10:23 PM 46.4°F8.0°C 50.7°F10.4°C 88% Calm Calm -- 29.80 in1009.1 mb 0.00 in0.0 mm 0.00 in0.0 mm 0.28 in7.1 mm
10:26 PM 46.4°F8.0°C 50.7°F10.4°C 88% Calm Calm -- 29.80 in1009.1 mb 0.00 in0.0 mm 0.00 in0.0 mm 0.30 in7.6 mm
10:29 PM 46.3°F7.9°C 50.6°F10.3°C 88% Calm Calm -- 29.80 in1009.1 mb 0.00 in0.0 mm 0.00 in0.0 mm 0.30 in7.6 mm
10:32 PM 46.4°F8.0°C 50.5°F10.3°C 88% Calm Calm -- 29.81 in1009.5 mb 0.00 in0.0 mm 0.00 in0.0 mm 0.32 in8.1 mm
10:35 PM 46.3°F7.9°C 50.8°F10.4°C 89% Calm Calm -- 29.80 in1009.1 mb 0.00 in0.0 mm 0.00 in0.0 mm 0.32 in8.1 mm
10:38 PM 46.1°F7.8°C 50.9°F10.5°C 88% 1.5 mph NE2.4 kmh NE 1.6 mph2.6 kmh 29.80 in1009.1 mb 0.00 in0.0 mm 0.00 in0.0 mm 0.34 in8.6 mm
10:41 PM 46.0°F7.8°C 50.6°F10.3°C 89% 1.6 mph NE2.6 kmh NE 1.6 mph2.6 kmh 29.80 in1009.1 mb 0.00 in0.0 mm 0.00 in0.0 mm 0.34 in8.6 mm
10:44 PM 46.0°F7.8°C 50.6°F10.3°C 89% Calm Calm -- 29.80 in1009.1 mb 0.00 in0.0 mm 0.00 in0.0 mm 0.34 in8.6 mm
10:47 PM 46.0°F7.8°C 50.3°F10.2°C 88% Calm Calm -- 29.80 in1009.1 mb 0.00 in0.0 mm 0.00 in0.0 mm 0.34 in8.6 mm
10:50 PM 46.1°F7.8°C 50.1°F10.1°C 87% 0.8 mph SSW1.3 kmh SSW 0.8 mph1.3 kmh 29.80 in1009.1 mb 0.00 in0.0 mm 0.00 in0.0 mm 0.34 in8.6 mm
10:53 PM 46.1°F7.8°C 50.0°F10.0°C 87% Calm Calm -- 29.80 in1009.1 mb 0.00 in0.0 mm 0.00 in0.0 mm 0.34 in8.6 mm
10:56 PM 46.1°F7.8°C 50.3°F10.2°C 88% Calm Calm -- 29.81 in1009.5 mb 0.00 in0.0 mm 0.00 in0.0 mm 0.34 in8.6 mm
10:59 PM 46.1°F7.8°C 50.3°F10.2°C 88% 0.4 mph WNW0.6 kmh WNW 0.4 mph0.6 kmh 29.81 in1009.5 mb 0.00 in0.0 mm 0.00 in0.0 mm 0.34 in8.6 mm
11:05 PM 46.2°F7.9°C 50.6°F10.3°C 89% Calm Calm -- 29.81 in1009.5 mb 0.00 in0.0 mm 0.00 in0.0 mm 0.34 in8.6 mm
11:08 PM 46.1°F7.8°C 50.6°F10.3°C 89% Calm Calm -- 29.80 in1009.1 mb 0.00 in0.0 mm 0.00 in0.0 mm 0.34 in8.6 mm
11:11 PM 46.1°F7.8°C 50.5°F10.3°C 89% Calm Calm -- 29.80 in1009.1 mb 0.00 in0.0 mm 0.00 in0.0 mm 0.34 in8.6 mm
11:14 PM 46.1°F7.8°C 50.5°F10.3°C 89% Calm Calm -- 29.80 in1009.1 mb 0.00 in0.0 mm 0.00 in0.0 mm 0.34 in8.6 mm
11:17 PM 45.8°F7.7°C 50.3°F10.2°C 89% Calm Calm -- 29.80 in1009.1 mb 0.00 in0.0 mm 0.00 in0.0 mm 0.34 in8.6 mm
11:20 PM 45.7°F7.6°C 50.0°F10.0°C 89% Calm Calm -- 29.80 in1009.1 mb 0.00 in0.0 mm 0.00 in0.0 mm 0.36 in9.1 mm
11:23 PM 45.7°F7.6°C 49.6°F9.8°C 88% Calm Calm -- 29.81 in1009.5 mb 0.00 in0.0 mm 0.00 in0.0 mm 0.36 in9.1 mm
11:26 PM 45.8°F7.7°C 50.2°F10.1°C 89% Calm Calm -- 29.81 in1009.5 mb 0.00 in0.0 mm 0.00 in0.0 mm 0.36 in9.1 mm
11:29 PM 45.7°F7.6°C 50.3°F10.2°C 89% Calm Calm -- 29.80 in1009.1 mb 0.00 in0.0 mm 0.00 in0.0 mm 0.36 in9.1 mm
11:32 PM 45.7°F7.6°C 50.3°F10.2°C 89% Calm Calm -- 29.80 in1009.1 mb 0.00 in0.0 mm 0.00 in0.0 mm 0.36 in9.1 mm
11:38 PM 45.5°F7.5°C 50.1°F10.1°C 89% Calm Calm -- 29.80 in1009.1 mb 0.00 in0.0 mm 0.00 in0.0 mm 0.38 in9.7 mm
11:41 PM 45.4°F7.4°C 49.7°F9.8°C 88% Calm Calm -- 29.80 in1009.1 mb 0.00 in0.0 mm 0.00 in0.0 mm 0.38 in9.7 mm
11:47 PM 45.2°F7.3°C 49.8°F9.9°C 89% Calm Calm -- 29.80 in1009.1 mb 0.00 in0.0 mm 0.00 in0.0 mm 0.38 in9.7 mm
11:50 PM 45.3°F7.4°C 49.9°F9.9°C 89% Calm Calm -- 29.80 in1009.1 mb 0.00 in0.0 mm 0.00 in0.0 mm 0.38 in9.7 mm
11:53 PM 45.3°F7.4°C 49.6°F9.8°C 89% Calm Calm -- 29.80 in1009.1 mb 0.00 in0.0 mm 0.00 in0.0 mm 0.38 in9.7 mm
11:56 PM 45.3°F7.4°C 49.6°F9.8°C 89% Calm Calm -- 29.80 in1009.1 mb 0.00 in0.0 mm 0.00 in0.0 mm 0.38 in9.7 mm
11:59 PM 45.3°F7.4°C 49.9°F9.9°C 89% Calm Calm -- 29.80 in1009.1 mb 0.00 in0.0 mm 0.00 in0.0 mm 0.38 in9.7 mm